<?xml version="1.0" encoding="UTF-8" standalone="no" ?>
<gpx xmlns="http://www.topografix.com/GPX/1/1" xmlns:xsi="http://www.w3.org/2001/XMLSchema-instance" xsi:schemaLocation="http://www.topografix.com/GPX/1/1 http://www.topografix.com/GPX/1/1/gpx.xsd" version="1.1" creator="VisuGPX - https://www.visugpx.com">
  <metadata>
    <name>VTT Sud Bourgogne</name>
    <desc><![CDATA[Cluny - Tournus : circuits VTT XC]]></desc>
  </metadata>
  <trk>
    <name><![CDATA[6 DE_BRANCION_A_LA_COTE_VITICOLE Rouge]]></name>
    <extensions>
      <line xmlns="http://www.topografix.com/GPX/gpx_style/0/2">
        <color>FF00FF</color>
        <width>4</width>
      </line>
    </extensions>
    <trkseg>
      <trkpt lat="46.54476" lon="4.79895">
        <ele>357</ele>
        <time>2020-09-22T10:13:33Z</time>
      </trkpt>
      <trkpt lat="46.54502" lon="4.79896">
        <ele>360</ele>
        <time>2020-09-22T10:13:39Z</time>
      </trkpt>
      <trkpt lat="46.54532" lon="4.7988">
        <ele>360</ele>
        <time>2020-09-22T10:13:47Z</time>
      </trkpt>
      <trkpt lat="46.5457" lon="4.79855">
        <ele>360</ele>
        <time>2020-09-22T10:13:56Z</time>
      </trkpt>
      <trkpt lat="46.54621" lon="4.79798">
        <ele>358</ele>
        <time>2020-09-22T10:14:11Z</time>
      </trkpt>
      <trkpt lat="46.54641" lon="4.79771">
        <ele>358</ele>
        <time>2020-09-22T10:14:18Z</time>
      </trkpt>
      <trkpt lat="46.54676" lon="4.7971">
        <ele>359</ele>
        <time>2020-09-22T10:14:30Z</time>
      </trkpt>
      <trkpt lat="46.54668" lon="4.79711">
        <ele>358</ele>
        <time>2020-09-22T10:14:32Z</time>
      </trkpt>
      <trkpt lat="46.54639" lon="4.79747">
        <ele>354</ele>
        <time>2020-09-22T10:14:41Z</time>
      </trkpt>
      <trkpt lat="46.54626" lon="4.79754">
        <ele>352</ele>
        <time>2020-09-22T10:14:44Z</time>
      </trkpt>
      <trkpt lat="46.54572" lon="4.79772">
        <ele>345</ele>
        <time>2020-09-22T10:14:57Z</time>
      </trkpt>
      <trkpt lat="46.54539" lon="4.79774">
        <ele>342</ele>
        <time>2020-09-22T10:15:05Z</time>
      </trkpt>
      <trkpt lat="46.54534" lon="4.79782">
        <ele>344</ele>
        <time>2020-09-22T10:15:07Z</time>
      </trkpt>
      <trkpt lat="46.54501" lon="4.798">
        <ele>344</ele>
        <time>2020-09-22T10:15:15Z</time>
      </trkpt>
      <trkpt lat="46.54482" lon="4.79806">
        <ele>345</ele>
        <time>2020-09-22T10:15:20Z</time>
      </trkpt>
      <trkpt lat="46.54448" lon="4.79809">
        <ele>344</ele>
        <time>2020-09-22T10:15:28Z</time>
      </trkpt>
      <trkpt lat="46.5442" lon="4.7982">
        <ele>343</ele>
        <time>2020-09-22T10:15:34Z</time>
      </trkpt>
      <trkpt lat="46.54398" lon="4.79841">
        <ele>344</ele>
        <time>2020-09-22T10:15:40Z</time>
      </trkpt>
      <trkpt lat="46.54381" lon="4.79879">
        <ele>348</ele>
        <time>2020-09-22T10:15:48Z</time>
      </trkpt>
      <trkpt lat="46.54363" lon="4.79896">
        <ele>349</ele>
        <time>2020-09-22T10:15:53Z</time>
      </trkpt>
      <trkpt lat="46.54292" lon="4.79937">
        <ele>351</ele>
        <time>2020-09-22T10:16:11Z</time>
      </trkpt>
      <trkpt lat="46.54274" lon="4.79945">
        <ele>352</ele>
        <time>2020-09-22T10:16:15Z</time>
      </trkpt>
      <trkpt lat="46.5426" lon="4.79945">
        <ele>352</ele>
        <time>2020-09-22T10:16:18Z</time>
      </trkpt>
      <trkpt lat="46.54246" lon="4.79936">
        <ele>352</ele>
        <time>2020-09-22T10:16:22Z</time>
      </trkpt>
      <trkpt lat="46.54239" lon="4.79942">
        <ele>352</ele>
        <time>2020-09-22T10:16:24Z</time>
      </trkpt>
      <trkpt lat="46.54224" lon="4.79956">
        <ele>353</ele>
        <time>2020-09-22T10:16:28Z</time>
      </trkpt>
      <trkpt lat="46.54138" lon="4.80058">
        <ele>354</ele>
        <time>2020-09-22T10:16:54Z</time>
      </trkpt>
      <trkpt lat="46.54109" lon="4.80087">
        <ele>353</ele>
        <time>2020-09-22T10:17:02Z</time>
      </trkpt>
      <trkpt lat="46.54093" lon="4.80093">
        <ele>352</ele>
        <time>2020-09-22T10:17:06Z</time>
      </trkpt>
      <trkpt lat="46.54085" lon="4.80093">
        <ele>352</ele>
        <time>2020-09-22T10:17:08Z</time>
      </trkpt>
      <trkpt lat="46.5407" lon="4.80088">
        <ele>350</ele>
        <time>2020-09-22T10:17:11Z</time>
      </trkpt>
      <trkpt lat="46.54058" lon="4.80081">
        <ele>349</ele>
        <time>2020-09-22T10:17:14Z</time>
      </trkpt>
      <trkpt lat="46.5406" lon="4.80155">
        <ele>346</ele>
        <time>2020-09-22T10:17:26Z</time>
      </trkpt>
      <trkpt lat="46.5407" lon="4.80191">
        <ele>346</ele>
        <time>2020-09-22T10:17:33Z</time>
      </trkpt>
      <trkpt lat="46.5407" lon="4.80209">
        <ele>345</ele>
        <time>2020-09-22T10:17:35Z</time>
      </trkpt>
      <trkpt lat="46.54065" lon="4.80222">
        <ele>344</ele>
        <time>2020-09-22T10:17:38Z</time>
      </trkpt>
      <trkpt lat="46.54059" lon="4.80229">
        <ele>343</ele>
        <time>2020-09-22T10:17:40Z</time>
      </trkpt>
      <trkpt lat="46.54029" lon="4.80251">
        <ele>340</ele>
        <time>2020-09-22T10:17:47Z</time>
      </trkpt>
      <trkpt lat="46.54024" lon="4.80251">
        <ele>340</ele>
        <time>2020-09-22T10:17:49Z</time>
      </trkpt>
      <trkpt lat="46.5392" lon="4.80208">
        <ele>337</ele>
        <time>2020-09-22T10:18:14Z</time>
      </trkpt>
      <trkpt lat="46.53891" lon="4.80202">
        <ele>337</ele>
        <time>2020-09-22T10:18:21Z</time>
      </trkpt>
      <trkpt lat="46.53866" lon="4.80202">
        <ele>337</ele>
        <time>2020-09-22T10:18:27Z</time>
      </trkpt>
      <trkpt lat="46.53754" lon="4.80237">
        <ele>342</ele>
        <time>2020-09-22T10:18:53Z</time>
      </trkpt>
      <trkpt lat="46.53734" lon="4.80246">
        <ele>342</ele>
        <time>2020-09-22T10:18:58Z</time>
      </trkpt>
      <trkpt lat="46.53671" lon="4.80264">
        <ele>340</ele>
        <time>2020-09-22T10:19:13Z</time>
      </trkpt>
      <trkpt lat="46.53646" lon="4.80283">
        <ele>339</ele>
        <time>2020-09-22T10:19:20Z</time>
      </trkpt>
      <trkpt lat="46.53622" lon="4.80309">
        <ele>339</ele>
        <time>2020-09-22T10:19:27Z</time>
      </trkpt>
      <trkpt lat="46.5359" lon="4.80367">
        <ele>337</ele>
        <time>2020-09-22T10:19:39Z</time>
      </trkpt>
      <trkpt lat="46.53562" lon="4.80406">
        <ele>333</ele>
        <time>2020-09-22T10:19:48Z</time>
      </trkpt>
      <trkpt lat="46.53537" lon="4.80434">
        <ele>328</ele>
        <time>2020-09-22T10:19:55Z</time>
      </trkpt>
      <trkpt lat="46.53516" lon="4.80469">
        <ele>325</ele>
        <time>2020-09-22T10:20:03Z</time>
      </trkpt>
      <trkpt lat="46.53492" lon="4.8053">
        <ele>321</ele>
        <time>2020-09-22T10:20:14Z</time>
      </trkpt>
      <trkpt lat="46.53441" lon="4.80628">
        <ele>313</ele>
        <time>2020-09-22T10:20:34Z</time>
      </trkpt>
      <trkpt lat="46.53501" lon="4.80651">
        <ele>320</ele>
        <time>2020-09-22T10:20:48Z</time>
      </trkpt>
      <trkpt lat="46.53534" lon="4.80689">
        <ele>322</ele>
        <time>2020-09-22T10:20:58Z</time>
      </trkpt>
      <trkpt lat="46.53556" lon="4.80709">
        <ele>324</ele>
        <time>2020-09-22T10:21:04Z</time>
      </trkpt>
      <trkpt lat="46.53568" lon="4.80724">
        <ele>324</ele>
        <time>2020-09-22T10:21:08Z</time>
      </trkpt>
      <trkpt lat="46.53623" lon="4.80826">
        <ele>324</ele>
        <time>2020-09-22T10:21:29Z</time>
      </trkpt>
      <trkpt lat="46.53649" lon="4.8084">
        <ele>327</ele>
        <time>2020-09-22T10:21:35Z</time>
      </trkpt>
      <trkpt lat="46.53766" lon="4.80883">
        <ele>343</ele>
        <time>2020-09-22T10:22:03Z</time>
      </trkpt>
      <trkpt lat="46.53801" lon="4.80888">
        <ele>348</ele>
        <time>2020-09-22T10:22:11Z</time>
      </trkpt>
      <trkpt lat="46.53828" lon="4.80897">
        <ele>352</ele>
        <time>2020-09-22T10:22:18Z</time>
      </trkpt>
      <trkpt lat="46.53864" lon="4.80902">
        <ele>358</ele>
        <time>2020-09-22T10:22:26Z</time>
      </trkpt>
      <trkpt lat="46.5393" lon="4.80903">
        <ele>369</ele>
        <time>2020-09-22T10:22:42Z</time>
      </trkpt>
      <trkpt lat="46.53973" lon="4.80932">
        <ele>372</ele>
        <time>2020-09-22T10:22:53Z</time>
      </trkpt>
      <trkpt lat="46.54007" lon="4.8094">
        <ele>375</ele>
        <time>2020-09-22T10:23:01Z</time>
      </trkpt>
      <trkpt lat="46.54037" lon="4.80934">
        <ele>380</ele>
        <time>2020-09-22T10:23:08Z</time>
      </trkpt>
      <trkpt lat="46.54092" lon="4.80937">
        <ele>386</ele>
        <time>2020-09-22T10:23:21Z</time>
      </trkpt>
      <trkpt lat="46.54211" lon="4.80988">
        <ele>390</ele>
        <time>2020-09-22T10:23:50Z</time>
      </trkpt>
      <trkpt lat="46.54238" lon="4.80997">
        <ele>391</ele>
        <time>2020-09-22T10:23:56Z</time>
      </trkpt>
      <trkpt lat="46.54309" lon="4.81013">
        <ele>394</ele>
        <time>2020-09-22T10:24:13Z</time>
      </trkpt>
      <trkpt lat="46.543" lon="4.8106">
        <ele>387</ele>
        <time>2020-09-22T10:24:21Z</time>
      </trkpt>
      <trkpt lat="46.54281" lon="4.8113">
        <ele>373</ele>
        <time>2020-09-22T10:24:33Z</time>
      </trkpt>
      <trkpt lat="46.54272" lon="4.81142">
        <ele>371</ele>
        <time>2020-09-22T10:24:36Z</time>
      </trkpt>
      <trkpt lat="46.54248" lon="4.81231">
        <ele>366</ele>
        <time>2020-09-22T10:24:51Z</time>
      </trkpt>
      <trkpt lat="46.54182" lon="4.81234">
        <ele>366</ele>
        <time>2020-09-22T10:25:07Z</time>
      </trkpt>
      <trkpt lat="46.54034" lon="4.81415">
        <ele>356</ele>
        <time>2020-09-22T10:25:52Z</time>
      </trkpt>
      <trkpt lat="46.54016" lon="4.81445">
        <ele>351</ele>
        <time>2020-09-22T10:25:58Z</time>
      </trkpt>
      <trkpt lat="46.54005" lon="4.81452">
        <ele>349</ele>
        <time>2020-09-22T10:26:01Z</time>
      </trkpt>
      <trkpt lat="46.53987" lon="4.81448">
        <ele>347</ele>
        <time>2020-09-22T10:26:05Z</time>
      </trkpt>
      <trkpt lat="46.53977" lon="4.81441">
        <ele>347</ele>
        <time>2020-09-22T10:26:08Z</time>
      </trkpt>
      <trkpt lat="46.53956" lon="4.81439">
        <ele>344</ele>
        <time>2020-09-22T10:26:13Z</time>
      </trkpt>
      <trkpt lat="46.53929" lon="4.81451">
        <ele>340</ele>
        <time>2020-09-22T10:26:19Z</time>
      </trkpt>
      <trkpt lat="46.53927" lon="4.81455">
        <ele>339</ele>
        <time>2020-09-22T10:26:20Z</time>
      </trkpt>
      <trkpt lat="46.53925" lon="4.8146">
        <ele>338</ele>
        <time>2020-09-22T10:26:21Z</time>
      </trkpt>
      <trkpt lat="46.53933" lon="4.81491">
        <ele>336</ele>
        <time>2020-09-22T10:26:26Z</time>
      </trkpt>
      <trkpt lat="46.53935" lon="4.8153">
        <ele>332</ele>
        <time>2020-09-22T10:26:33Z</time>
      </trkpt>
      <trkpt lat="46.53944" lon="4.81556">
        <ele>329</ele>
        <time>2020-09-22T10:26:37Z</time>
      </trkpt>
      <trkpt lat="46.53973" lon="4.81609">
        <ele>327</ele>
        <time>2020-09-22T10:26:48Z</time>
      </trkpt>
      <trkpt lat="46.53984" lon="4.81647">
        <ele>324</ele>
        <time>2020-09-22T10:26:55Z</time>
      </trkpt>
      <trkpt lat="46.5395" lon="4.81758">
        <ele>312</ele>
        <time>2020-09-22T10:27:14Z</time>
      </trkpt>
      <trkpt lat="46.53942" lon="4.81774">
        <ele>311</ele>
        <time>2020-09-22T10:27:17Z</time>
      </trkpt>
      <trkpt lat="46.53948" lon="4.81851">
        <ele>305</ele>
        <time>2020-09-22T10:27:30Z</time>
      </trkpt>
      <trkpt lat="46.53912" lon="4.81862">
        <ele>300</ele>
        <time>2020-09-22T10:27:38Z</time>
      </trkpt>
      <trkpt lat="46.53849" lon="4.81868">
        <ele>291</ele>
        <time>2020-09-22T10:27:53Z</time>
      </trkpt>
      <trkpt lat="46.53846" lon="4.81871">
        <ele>290</ele>
        <time>2020-09-22T10:27:54Z</time>
      </trkpt>
      <trkpt lat="46.53846" lon="4.81886">
        <ele>288</ele>
        <time>2020-09-22T10:27:56Z</time>
      </trkpt>
      <trkpt lat="46.53889" lon="4.81943">
        <ele>288</ele>
        <time>2020-09-22T10:28:10Z</time>
      </trkpt>
      <trkpt lat="46.53896" lon="4.8197">
        <ele>286</ele>
        <time>2020-09-22T10:28:15Z</time>
      </trkpt>
      <trkpt lat="46.53897" lon="4.81986">
        <ele>285</ele>
        <time>2020-09-22T10:28:17Z</time>
      </trkpt>
      <trkpt lat="46.53894" lon="4.82">
        <ele>284</ele>
        <time>2020-09-22T10:28:20Z</time>
      </trkpt>
      <trkpt lat="46.5389" lon="4.82014">
        <ele>284</ele>
        <time>2020-09-22T10:28:22Z</time>
      </trkpt>
      <trkpt lat="46.53878" lon="4.82034">
        <ele>285</ele>
        <time>2020-09-22T10:28:26Z</time>
      </trkpt>
      <trkpt lat="46.53815" lon="4.82117">
        <ele>287</ele>
        <time>2020-09-22T10:28:46Z</time>
      </trkpt>
      <trkpt lat="46.53785" lon="4.82149">
        <ele>289</ele>
        <time>2020-09-22T10:28:55Z</time>
      </trkpt>
      <trkpt lat="46.53748" lon="4.82148">
        <ele>287</ele>
        <time>2020-09-22T10:29:04Z</time>
      </trkpt>
      <trkpt lat="46.53706" lon="4.82162">
        <ele>283</ele>
        <time>2020-09-22T10:29:14Z</time>
      </trkpt>
      <trkpt lat="46.53646" lon="4.82152">
        <ele>274</ele>
        <time>2020-09-22T10:29:28Z</time>
      </trkpt>
      <trkpt lat="46.53635" lon="4.82151">
        <ele>273</ele>
        <time>2020-09-22T10:29:30Z</time>
      </trkpt>
      <trkpt lat="46.53627" lon="4.82153">
        <ele>272</ele>
        <time>2020-09-22T10:29:32Z</time>
      </trkpt>
      <trkpt lat="46.53591" lon="4.82175">
        <ele>268</ele>
        <time>2020-09-22T10:29:41Z</time>
      </trkpt>
      <trkpt lat="46.53539" lon="4.82189">
        <ele>266</ele>
        <time>2020-09-22T10:29:54Z</time>
      </trkpt>
      <trkpt lat="46.53515" lon="4.82209">
        <ele>265</ele>
        <time>2020-09-22T10:30:00Z</time>
      </trkpt>
      <trkpt lat="46.53451" lon="4.82255">
        <ele>264</ele>
        <time>2020-09-22T10:30:17Z</time>
      </trkpt>
      <trkpt lat="46.53435" lon="4.82265">
        <ele>264</ele>
        <time>2020-09-22T10:30:21Z</time>
      </trkpt>
      <trkpt lat="46.53427" lon="4.82265">
        <ele>264</ele>
        <time>2020-09-22T10:30:23Z</time>
      </trkpt>
      <trkpt lat="46.53412" lon="4.82243">
        <ele>263</ele>
        <time>2020-09-22T10:30:28Z</time>
      </trkpt>
      <trkpt lat="46.53404" lon="4.82236">
        <ele>263</ele>
        <time>2020-09-22T10:30:30Z</time>
      </trkpt>
      <trkpt lat="46.53382" lon="4.82229">
        <ele>261</ele>
        <time>2020-09-22T10:30:35Z</time>
      </trkpt>
      <trkpt lat="46.53323" lon="4.82218">
        <ele>258</ele>
        <time>2020-09-22T10:30:49Z</time>
      </trkpt>
      <trkpt lat="46.53304" lon="4.82212">
        <ele>258</ele>
        <time>2020-09-22T10:30:54Z</time>
      </trkpt>
      <trkpt lat="46.53282" lon="4.82188">
        <ele>258</ele>
        <time>2020-09-22T10:31:00Z</time>
      </trkpt>
      <trkpt lat="46.53273" lon="4.82191">
        <ele>258</ele>
        <time>2020-09-22T10:31:02Z</time>
      </trkpt>
      <trkpt lat="46.53268" lon="4.822">
        <ele>258</ele>
        <time>2020-09-22T10:31:04Z</time>
      </trkpt>
      <trkpt lat="46.53261" lon="4.822">
        <ele>258</ele>
        <time>2020-09-22T10:31:06Z</time>
      </trkpt>
      <trkpt lat="46.53229" lon="4.82219">
        <ele>258</ele>
        <time>2020-09-22T10:31:14Z</time>
      </trkpt>
      <trkpt lat="46.53219" lon="4.82222">
        <ele>258</ele>
        <time>2020-09-22T10:31:16Z</time>
      </trkpt>
      <trkpt lat="46.5321" lon="4.82221">
        <ele>258</ele>
        <time>2020-09-22T10:31:18Z</time>
      </trkpt>
      <trkpt lat="46.53208" lon="4.82211">
        <ele>259</ele>
        <time>2020-09-22T10:31:20Z</time>
      </trkpt>
      <trkpt lat="46.53209" lon="4.82175">
        <ele>261</ele>
        <time>2020-09-22T10:31:26Z</time>
      </trkpt>
      <trkpt lat="46.53164" lon="4.82119">
        <ele>264</ele>
        <time>2020-09-22T10:31:39Z</time>
      </trkpt>
      <trkpt lat="46.53146" lon="4.82103">
        <ele>263</ele>
        <time>2020-09-22T10:31:44Z</time>
      </trkpt>
      <trkpt lat="46.5313" lon="4.82107">
        <ele>263</ele>
        <time>2020-09-22T10:31:48Z</time>
      </trkpt>
      <trkpt lat="46.53123" lon="4.82106">
        <ele>263</ele>
        <time>2020-09-22T10:31:50Z</time>
      </trkpt>
      <trkpt lat="46.53103" lon="4.82095">
        <ele>263</ele>
        <time>2020-09-22T10:31:55Z</time>
      </trkpt>
      <trkpt lat="46.5309" lon="4.82091">
        <ele>263</ele>
        <time>2020-09-22T10:31:58Z</time>
      </trkpt>
      <trkpt lat="46.53084" lon="4.82091">
        <ele>263</ele>
        <time>2020-09-22T10:31:59Z</time>
      </trkpt>
      <trkpt lat="46.53081" lon="4.82094">
        <ele>263</ele>
        <time>2020-09-22T10:32:00Z</time>
      </trkpt>
      <trkpt lat="46.53078" lon="4.82099">
        <ele>263</ele>
        <time>2020-09-22T10:32:01Z</time>
      </trkpt>
      <trkpt lat="46.53077" lon="4.82113">
        <ele>262</ele>
        <time>2020-09-22T10:32:04Z</time>
      </trkpt>
      <trkpt lat="46.5308" lon="4.82128">
        <ele>261</ele>
        <time>2020-09-22T10:32:06Z</time>
      </trkpt>
      <trkpt lat="46.53087" lon="4.82142">
        <ele>260</ele>
        <time>2020-09-22T10:32:09Z</time>
      </trkpt>
      <trkpt lat="46.53059" lon="4.82187">
        <ele>261</ele>
        <time>2020-09-22T10:32:19Z</time>
      </trkpt>
      <trkpt lat="46.53026" lon="4.82211">
        <ele>267</ele>
        <time>2020-09-22T10:32:27Z</time>
      </trkpt>
      <trkpt lat="46.53018" lon="4.82225">
        <ele>270</ele>
        <time>2020-09-22T10:32:30Z</time>
      </trkpt>
      <trkpt lat="46.5303" lon="4.8223">
        <ele>269</ele>
        <time>2020-09-22T10:32:33Z</time>
      </trkpt>
      <trkpt lat="46.53036" lon="4.82238">
        <ele>268</ele>
        <time>2020-09-22T10:32:35Z</time>
      </trkpt>
      <trkpt lat="46.53055" lon="4.82285">
        <ele>273</ele>
        <time>2020-09-22T10:32:44Z</time>
      </trkpt>
      <trkpt lat="46.53068" lon="4.8231">
        <ele>274</ele>
        <time>2020-09-22T10:32:49Z</time>
      </trkpt>
      <trkpt lat="46.53084" lon="4.82332">
        <ele>274</ele>
        <time>2020-09-22T10:32:54Z</time>
      </trkpt>
      <trkpt lat="46.53194" lon="4.82448">
        <ele>266</ele>
        <time>2020-09-22T10:33:26Z</time>
      </trkpt>
      <trkpt lat="46.53244" lon="4.82538">
        <ele>262</ele>
        <time>2020-09-22T10:33:44Z</time>
      </trkpt>
      <trkpt lat="46.53256" lon="4.82575">
        <ele>262</ele>
        <time>2020-09-22T10:33:51Z</time>
      </trkpt>
      <trkpt lat="46.5326" lon="4.82602">
        <ele>263</ele>
        <time>2020-09-22T10:33:55Z</time>
      </trkpt>
      <trkpt lat="46.5326" lon="4.82615">
        <ele>263</ele>
        <time>2020-09-22T10:33:57Z</time>
      </trkpt>
      <trkpt lat="46.53255" lon="4.8264">
        <ele>264</ele>
        <time>2020-09-22T10:34:01Z</time>
      </trkpt>
      <trkpt lat="46.53246" lon="4.82665">
        <ele>266</ele>
        <time>2020-09-22T10:34:06Z</time>
      </trkpt>
      <trkpt lat="46.53239" lon="4.82697">
        <ele>268</ele>
        <time>2020-09-22T10:34:11Z</time>
      </trkpt>
      <trkpt lat="46.53237" lon="4.82787">
        <ele>267</ele>
        <time>2020-09-22T10:34:26Z</time>
      </trkpt>
      <trkpt lat="46.53241" lon="4.82871">
        <ele>262</ele>
        <time>2020-09-22T10:34:39Z</time>
      </trkpt>
      <trkpt lat="46.53238" lon="4.82895">
        <ele>261</ele>
        <time>2020-09-22T10:34:43Z</time>
      </trkpt>
      <trkpt lat="46.53211" lon="4.82951">
        <ele>261</ele>
        <time>2020-09-22T10:34:54Z</time>
      </trkpt>
      <trkpt lat="46.53197" lon="4.8297">
        <ele>261</ele>
        <time>2020-09-22T10:34:59Z</time>
      </trkpt>
      <trkpt lat="46.53134" lon="4.83082">
        <ele>257</ele>
        <time>2020-09-22T10:35:22Z</time>
      </trkpt>
      <trkpt lat="46.5312" lon="4.83116">
        <ele>259</ele>
        <time>2020-09-22T10:35:28Z</time>
      </trkpt>
      <trkpt lat="46.53118" lon="4.83133">
        <ele>259</ele>
        <time>2020-09-22T10:35:31Z</time>
      </trkpt>
      <trkpt lat="46.53121" lon="4.83164">
        <ele>260</ele>
        <time>2020-09-22T10:35:36Z</time>
      </trkpt>
      <trkpt lat="46.53127" lon="4.83182">
        <ele>262</ele>
        <time>2020-09-22T10:35:39Z</time>
      </trkpt>
      <trkpt lat="46.53187" lon="4.83243">
        <ele>261</ele>
        <time>2020-09-22T10:35:56Z</time>
      </trkpt>
      <trkpt lat="46.53239" lon="4.83315">
        <ele>265</ele>
        <time>2020-09-22T10:36:13Z</time>
      </trkpt>
      <trkpt lat="46.5323" lon="4.83311">
        <ele>265</ele>
        <time>2020-09-22T10:36:15Z</time>
      </trkpt>
      <trkpt lat="46.53213" lon="4.83296">
        <ele>265</ele>
        <time>2020-09-22T10:36:20Z</time>
      </trkpt>
      <trkpt lat="46.53205" lon="4.83292">
        <ele>265</ele>
        <time>2020-09-22T10:36:22Z</time>
      </trkpt>
      <trkpt lat="46.53191" lon="4.83291">
        <ele>267</ele>
        <time>2020-09-22T10:36:25Z</time>
      </trkpt>
      <trkpt lat="46.53172" lon="4.83305">
        <ele>271</ele>
        <time>2020-09-22T10:36:30Z</time>
      </trkpt>
      <trkpt lat="46.53093" lon="4.8332">
        <ele>279</ele>
        <time>2020-09-22T10:36:49Z</time>
      </trkpt>
      <trkpt lat="46.53043" lon="4.8334">
        <ele>284</ele>
        <time>2020-09-22T10:37:01Z</time>
      </trkpt>
      <trkpt lat="46.53026" lon="4.83351">
        <ele>285</ele>
        <time>2020-09-22T10:37:05Z</time>
      </trkpt>
      <trkpt lat="46.52938" lon="4.83421">
        <ele>291</ele>
        <time>2020-09-22T10:37:29Z</time>
      </trkpt>
      <trkpt lat="46.52865" lon="4.83463">
        <ele>290</ele>
        <time>2020-09-22T10:37:47Z</time>
      </trkpt>
      <trkpt lat="46.5283" lon="4.83491">
        <ele>287</ele>
        <time>2020-09-22T10:37:56Z</time>
      </trkpt>
      <trkpt lat="46.52768" lon="4.83508">
        <ele>282</ele>
        <time>2020-09-22T10:38:11Z</time>
      </trkpt>
      <trkpt lat="46.52723" lon="4.83557">
        <ele>278</ele>
        <time>2020-09-22T10:38:24Z</time>
      </trkpt>
      <trkpt lat="46.52707" lon="4.83565">
        <ele>278</ele>
        <time>2020-09-22T10:38:28Z</time>
      </trkpt>
      <trkpt lat="46.52691" lon="4.83568">
        <ele>278</ele>
        <time>2020-09-22T10:38:32Z</time>
      </trkpt>
      <trkpt lat="46.52649" lon="4.83569">
        <ele>279</ele>
        <time>2020-09-22T10:38:42Z</time>
      </trkpt>
      <trkpt lat="46.52591" lon="4.83576">
        <ele>281</ele>
        <time>2020-09-22T10:38:55Z</time>
      </trkpt>
      <trkpt lat="46.52552" lon="4.83601">
        <ele>282</ele>
        <time>2020-09-22T10:39:05Z</time>
      </trkpt>
      <trkpt lat="46.52546" lon="4.83603">
        <ele>282</ele>
        <time>2020-09-22T10:39:07Z</time>
      </trkpt>
      <trkpt lat="46.52524" lon="4.83603">
        <ele>283</ele>
        <time>2020-09-22T10:39:12Z</time>
      </trkpt>
      <trkpt lat="46.52515" lon="4.83606">
        <ele>284</ele>
        <time>2020-09-22T10:39:14Z</time>
      </trkpt>
      <trkpt lat="46.52511" lon="4.8361">
        <ele>284</ele>
        <time>2020-09-22T10:39:15Z</time>
      </trkpt>
      <trkpt lat="46.52475" lon="4.8369">
        <ele>285</ele>
        <time>2020-09-22T10:39:31Z</time>
      </trkpt>
      <trkpt lat="46.52474" lon="4.83695">
        <ele>285</ele>
        <time>2020-09-22T10:39:31Z</time>
      </trkpt>
      <trkpt lat="46.52475" lon="4.8369">
        <ele>285</ele>
        <time>2020-09-22T10:39:32Z</time>
      </trkpt>
      <trkpt lat="46.52532" lon="4.83716">
        <ele>281</ele>
        <time>2020-09-22T10:39:46Z</time>
      </trkpt>
      <trkpt lat="46.52545" lon="4.83726">
        <ele>279</ele>
        <time>2020-09-22T10:39:50Z</time>
      </trkpt>
      <trkpt lat="46.52552" lon="4.83736">
        <ele>279</ele>
        <time>2020-09-22T10:39:52Z</time>
      </trkpt>
      <trkpt lat="46.52551" lon="4.83759">
        <ele>278</ele>
        <time>2020-09-22T10:39:56Z</time>
      </trkpt>
      <trkpt lat="46.52555" lon="4.8376">
        <ele>277</ele>
        <time>2020-09-22T10:39:57Z</time>
      </trkpt>
      <trkpt lat="46.5259" lon="4.83789">
        <ele>274</ele>
        <time>2020-09-22T10:40:06Z</time>
      </trkpt>
      <trkpt lat="46.52605" lon="4.83783">
        <ele>273</ele>
        <time>2020-09-22T10:40:10Z</time>
      </trkpt>
      <trkpt lat="46.52617" lon="4.83785">
        <ele>272</ele>
        <time>2020-09-22T10:40:13Z</time>
      </trkpt>
      <trkpt lat="46.52706" lon="4.8382">
        <ele>266</ele>
        <time>2020-09-22T10:40:34Z</time>
      </trkpt>
      <trkpt lat="46.52814" lon="4.83847">
        <ele>267</ele>
        <time>2020-09-22T10:41:00Z</time>
      </trkpt>
      <trkpt lat="46.52804" lon="4.83934">
        <ele>264</ele>
        <time>2020-09-22T10:41:14Z</time>
      </trkpt>
      <trkpt lat="46.52798" lon="4.84017">
        <ele>261</ele>
        <time>2020-09-22T10:41:27Z</time>
      </trkpt>
      <trkpt lat="46.52835" lon="4.84024">
        <ele>261</ele>
        <time>2020-09-22T10:41:36Z</time>
      </trkpt>
      <trkpt lat="46.52781" lon="4.84311">
        <ele>275</ele>
        <time>2020-09-22T10:42:24Z</time>
      </trkpt>
      <trkpt lat="46.52742" lon="4.84422">
        <ele>289</ele>
        <time>2020-09-22T10:42:44Z</time>
      </trkpt>
      <trkpt lat="46.52724" lon="4.84483">
        <ele>291</ele>
        <time>2020-09-22T10:42:54Z</time>
      </trkpt>
      <trkpt lat="46.52701" lon="4.84437">
        <ele>290</ele>
        <time>2020-09-22T10:43:04Z</time>
      </trkpt>
      <trkpt lat="46.52694" lon="4.84418">
        <ele>290</ele>
        <time>2020-09-22T10:43:07Z</time>
      </trkpt>
      <trkpt lat="46.52684" lon="4.84426">
        <ele>290</ele>
        <time>2020-09-22T10:43:10Z</time>
      </trkpt>
      <trkpt lat="46.52668" lon="4.84483">
        <ele>290</ele>
        <time>2020-09-22T10:43:20Z</time>
      </trkpt>
      <trkpt lat="46.52643" lon="4.84551">
        <ele>288</ele>
        <time>2020-09-22T10:43:32Z</time>
      </trkpt>
      <trkpt lat="46.52611" lon="4.846">
        <ele>284</ele>
        <time>2020-09-22T10:43:43Z</time>
      </trkpt>
      <trkpt lat="46.52595" lon="4.84615">
        <ele>282</ele>
        <time>2020-09-22T10:43:47Z</time>
      </trkpt>
      <trkpt lat="46.5256" lon="4.84637">
        <ele>280</ele>
        <time>2020-09-22T10:43:56Z</time>
      </trkpt>
      <trkpt lat="46.52514" lon="4.84674">
        <ele>276</ele>
        <time>2020-09-22T10:44:08Z</time>
      </trkpt>
      <trkpt lat="46.52483" lon="4.84701">
        <ele>274</ele>
        <time>2020-09-22T10:44:17Z</time>
      </trkpt>
      <trkpt lat="46.52461" lon="4.84725">
        <ele>272</ele>
        <time>2020-09-22T10:44:23Z</time>
      </trkpt>
      <trkpt lat="46.52428" lon="4.84872">
        <ele>274</ele>
        <time>2020-09-22T10:44:48Z</time>
      </trkpt>
      <trkpt lat="46.52419" lon="4.84934">
        <ele>278</ele>
        <time>2020-09-22T10:44:58Z</time>
      </trkpt>
      <trkpt lat="46.52411" lon="4.84963">
        <ele>280</ele>
        <time>2020-09-22T10:45:03Z</time>
      </trkpt>
      <trkpt lat="46.52407" lon="4.84988">
        <ele>281</ele>
        <time>2020-09-22T10:45:07Z</time>
      </trkpt>
      <trkpt lat="46.52402" lon="4.85141">
        <ele>293</ele>
        <time>2020-09-22T10:45:32Z</time>
      </trkpt>
      <trkpt lat="46.52404" lon="4.85201">
        <ele>296</ele>
        <time>2020-09-22T10:45:42Z</time>
      </trkpt>
      <trkpt lat="46.52402" lon="4.85226">
        <ele>297</ele>
        <time>2020-09-22T10:45:46Z</time>
      </trkpt>
      <trkpt lat="46.52409" lon="4.85335">
        <ele>303</ele>
        <time>2020-09-22T10:46:03Z</time>
      </trkpt>
      <trkpt lat="46.52411" lon="4.85354">
        <ele>304</ele>
        <time>2020-09-22T10:46:06Z</time>
      </trkpt>
      <trkpt lat="46.5242" lon="4.85392">
        <ele>305</ele>
        <time>2020-09-22T10:46:13Z</time>
      </trkpt>
      <trkpt lat="46.52446" lon="4.85466">
        <ele>307</ele>
        <time>2020-09-22T10:46:26Z</time>
      </trkpt>
      <trkpt lat="46.5245" lon="4.8554">
        <ele>306</ele>
        <time>2020-09-22T10:46:38Z</time>
      </trkpt>
      <trkpt lat="46.52449" lon="4.85573">
        <ele>305</ele>
        <time>2020-09-22T10:46:44Z</time>
      </trkpt>
      <trkpt lat="46.52436" lon="4.85676">
        <ele>304</ele>
        <time>2020-09-22T10:47:00Z</time>
      </trkpt>
      <trkpt lat="46.52434" lon="4.85745">
        <ele>302</ele>
        <time>2020-09-22T10:47:11Z</time>
      </trkpt>
      <trkpt lat="46.52435" lon="4.85774">
        <ele>301</ele>
        <time>2020-09-22T10:47:16Z</time>
      </trkpt>
      <trkpt lat="46.52444" lon="4.8583">
        <ele>298</ele>
        <time>2020-09-22T10:47:25Z</time>
      </trkpt>
      <trkpt lat="46.52445" lon="4.85886">
        <ele>297</ele>
        <time>2020-09-22T10:47:34Z</time>
      </trkpt>
      <trkpt lat="46.5244" lon="4.85976">
        <ele>298</ele>
        <time>2020-09-22T10:47:49Z</time>
      </trkpt>
      <trkpt lat="46.52441" lon="4.8602">
        <ele>300</ele>
        <time>2020-09-22T10:47:56Z</time>
      </trkpt>
      <trkpt lat="46.52438" lon="4.86053">
        <ele>302</ele>
        <time>2020-09-22T10:48:01Z</time>
      </trkpt>
      <trkpt lat="46.52434" lon="4.86068">
        <ele>303</ele>
        <time>2020-09-22T10:48:04Z</time>
      </trkpt>
      <trkpt lat="46.52432" lon="4.86105">
        <ele>305</ele>
        <time>2020-09-22T10:48:10Z</time>
      </trkpt>
      <trkpt lat="46.52431" lon="4.86142">
        <ele>308</ele>
        <time>2020-09-22T10:48:16Z</time>
      </trkpt>
      <trkpt lat="46.52434" lon="4.86173">
        <ele>310</ele>
        <time>2020-09-22T10:48:21Z</time>
      </trkpt>
      <trkpt lat="46.52466" lon="4.86274">
        <ele>313</ele>
        <time>2020-09-22T10:48:39Z</time>
      </trkpt>
      <trkpt lat="46.52475" lon="4.86318">
        <ele>313</ele>
        <time>2020-09-22T10:48:46Z</time>
      </trkpt>
      <trkpt lat="46.52489" lon="4.86552">
        <ele>317</ele>
        <time>2020-09-22T10:49:24Z</time>
      </trkpt>
      <trkpt lat="46.52493" lon="4.86579">
        <ele>317</ele>
        <time>2020-09-22T10:49:28Z</time>
      </trkpt>
      <trkpt lat="46.52536" lon="4.86652">
        <ele>317</ele>
        <time>2020-09-22T10:49:44Z</time>
      </trkpt>
      <trkpt lat="46.52566" lon="4.86682">
        <ele>316</ele>
        <time>2020-09-22T10:49:52Z</time>
      </trkpt>
      <trkpt lat="46.52591" lon="4.86754">
        <ele>311</ele>
        <time>2020-09-22T10:50:05Z</time>
      </trkpt>
      <trkpt lat="46.52595" lon="4.86778">
        <ele>308</ele>
        <time>2020-09-22T10:50:09Z</time>
      </trkpt>
      <trkpt lat="46.52598" lon="4.86842">
        <ele>300</ele>
        <time>2020-09-22T10:50:19Z</time>
      </trkpt>
      <trkpt lat="46.52609" lon="4.8687">
        <ele>297</ele>
        <time>2020-09-22T10:50:25Z</time>
      </trkpt>
      <trkpt lat="46.52607" lon="4.87012">
        <ele>278</ele>
        <time>2020-09-22T10:50:47Z</time>
      </trkpt>
      <trkpt lat="46.52602" lon="4.87109">
        <ele>265</ele>
        <time>2020-09-22T10:51:03Z</time>
      </trkpt>
      <trkpt lat="46.52604" lon="4.87126">
        <ele>263</ele>
        <time>2020-09-22T10:51:06Z</time>
      </trkpt>
      <trkpt lat="46.52611" lon="4.87138">
        <ele>262</ele>
        <time>2020-09-22T10:51:08Z</time>
      </trkpt>
      <trkpt lat="46.52626" lon="4.87181">
        <ele>258</ele>
        <time>2020-09-22T10:51:16Z</time>
      </trkpt>
      <trkpt lat="46.5262" lon="4.87204">
        <ele>257</ele>
        <time>2020-09-22T10:51:20Z</time>
      </trkpt>
      <trkpt lat="46.52607" lon="4.87222">
        <ele>257</ele>
        <time>2020-09-22T10:51:24Z</time>
      </trkpt>
      <trkpt lat="46.52615" lon="4.87238">
        <ele>256</ele>
        <time>2020-09-22T10:51:27Z</time>
      </trkpt>
      <trkpt lat="46.52602" lon="4.87278">
        <ele>254</ele>
        <time>2020-09-22T10:51:35Z</time>
      </trkpt>
      <trkpt lat="46.5265" lon="4.87344">
        <ele>251</ele>
        <time>2020-09-22T10:51:50Z</time>
      </trkpt>
      <trkpt lat="46.5268" lon="4.8739">
        <ele>250</ele>
        <time>2020-09-22T10:52:00Z</time>
      </trkpt>
      <trkpt lat="46.52696" lon="4.87401">
        <ele>250</ele>
        <time>2020-09-22T10:52:04Z</time>
      </trkpt>
      <trkpt lat="46.52734" lon="4.87421">
        <ele>249</ele>
        <time>2020-09-22T10:52:14Z</time>
      </trkpt>
      <trkpt lat="46.52745" lon="4.87432">
        <ele>249</ele>
        <time>2020-09-22T10:52:17Z</time>
      </trkpt>
      <trkpt lat="46.52741" lon="4.87436">
        <ele>249</ele>
        <time>2020-09-22T10:52:18Z</time>
      </trkpt>
      <trkpt lat="46.52716" lon="4.87524">
        <ele>248</ele>
        <time>2020-09-22T10:52:33Z</time>
      </trkpt>
      <trkpt lat="46.52694" lon="4.87637">
        <ele>249</ele>
        <time>2020-09-22T10:52:52Z</time>
      </trkpt>
      <trkpt lat="46.52666" lon="4.87804">
        <ele>247</ele>
        <time>2020-09-22T10:53:20Z</time>
      </trkpt>
      <trkpt lat="46.52658" lon="4.87829">
        <ele>247</ele>
        <time>2020-09-22T10:53:24Z</time>
      </trkpt>
      <trkpt lat="46.52647" lon="4.87853">
        <ele>247</ele>
        <time>2020-09-22T10:53:29Z</time>
      </trkpt>
      <trkpt lat="46.52587" lon="4.87808">
        <ele>247</ele>
        <time>2020-09-22T10:53:45Z</time>
      </trkpt>
      <trkpt lat="46.52512" lon="4.87778">
        <ele>262</ele>
        <time>2020-09-22T10:54:03Z</time>
      </trkpt>
      <trkpt lat="46.52465" lon="4.87766">
        <ele>273</ele>
        <time>2020-09-22T10:54:14Z</time>
      </trkpt>
      <trkpt lat="46.52455" lon="4.87773">
        <ele>274</ele>
        <time>2020-09-22T10:54:16Z</time>
      </trkpt>
      <trkpt lat="46.52448" lon="4.878">
        <ele>273</ele>
        <time>2020-09-22T10:54:21Z</time>
      </trkpt>
      <trkpt lat="46.5243" lon="4.87944">
        <ele>268</ele>
        <time>2020-09-22T10:54:45Z</time>
      </trkpt>
      <trkpt lat="46.52427" lon="4.87953">
        <ele>268</ele>
        <time>2020-09-22T10:54:46Z</time>
      </trkpt>
      <trkpt lat="46.52415" lon="4.87962">
        <ele>270</ele>
        <time>2020-09-22T10:54:49Z</time>
      </trkpt>
      <trkpt lat="46.52402" lon="4.87898">
        <ele>276</ele>
        <time>2020-09-22T10:55:00Z</time>
      </trkpt>
      <trkpt lat="46.52394" lon="4.8787">
        <ele>278</ele>
        <time>2020-09-22T10:55:05Z</time>
      </trkpt>
      <trkpt lat="46.52387" lon="4.87861">
        <ele>279</ele>
        <time>2020-09-22T10:55:07Z</time>
      </trkpt>
      <trkpt lat="46.52376" lon="4.87854">
        <ele>281</ele>
        <time>2020-09-22T10:55:10Z</time>
      </trkpt>
      <trkpt lat="46.5236" lon="4.87857">
        <ele>282</ele>
        <time>2020-09-22T10:55:14Z</time>
      </trkpt>
      <trkpt lat="46.52303" lon="4.87875">
        <ele>282</ele>
        <time>2020-09-22T10:55:27Z</time>
      </trkpt>
      <trkpt lat="46.52251" lon="4.87882">
        <ele>281</ele>
        <time>2020-09-22T10:55:40Z</time>
      </trkpt>
      <trkpt lat="46.52222" lon="4.87882">
        <ele>279</ele>
        <time>2020-09-22T10:55:46Z</time>
      </trkpt>
      <trkpt lat="46.52199" lon="4.87885">
        <ele>277</ele>
        <time>2020-09-22T10:55:52Z</time>
      </trkpt>
      <trkpt lat="46.52139" lon="4.87905">
        <ele>273</ele>
        <time>2020-09-22T10:56:06Z</time>
      </trkpt>
      <trkpt lat="46.52074" lon="4.87911">
        <ele>272</ele>
        <time>2020-09-22T10:56:21Z</time>
      </trkpt>
      <trkpt lat="46.52034" lon="4.87918">
        <ele>271</ele>
        <time>2020-09-22T10:56:31Z</time>
      </trkpt>
      <trkpt lat="46.51977" lon="4.87932">
        <ele>268</ele>
        <time>2020-09-22T10:56:44Z</time>
      </trkpt>
      <trkpt lat="46.51964" lon="4.87937">
        <ele>267</ele>
        <time>2020-09-22T10:56:47Z</time>
      </trkpt>
      <trkpt lat="46.51828" lon="4.88087">
        <ele>259</ele>
        <time>2020-09-22T10:57:27Z</time>
      </trkpt>
      <trkpt lat="46.5181" lon="4.8811">
        <ele>259</ele>
        <time>2020-09-22T10:57:33Z</time>
      </trkpt>
      <trkpt lat="46.51771" lon="4.88169">
        <ele>263</ele>
        <time>2020-09-22T10:57:46Z</time>
      </trkpt>
      <trkpt lat="46.51713" lon="4.88138">
        <ele>267</ele>
        <time>2020-09-22T10:58:00Z</time>
      </trkpt>
      <trkpt lat="46.51652" lon="4.88096">
        <ele>270</ele>
        <time>2020-09-22T10:58:16Z</time>
      </trkpt>
      <trkpt lat="46.5161" lon="4.88076">
        <ele>272</ele>
        <time>2020-09-22T10:58:26Z</time>
      </trkpt>
      <trkpt lat="46.51584" lon="4.88073">
        <ele>274</ele>
        <time>2020-09-22T10:58:33Z</time>
      </trkpt>
      <trkpt lat="46.5154" lon="4.88072">
        <ele>276</ele>
        <time>2020-09-22T10:58:43Z</time>
      </trkpt>
      <trkpt lat="46.51472" lon="4.88064">
        <ele>278</ele>
        <time>2020-09-22T10:58:59Z</time>
      </trkpt>
      <trkpt lat="46.51477" lon="4.88054">
        <ele>277</ele>
        <time>2020-09-22T10:59:01Z</time>
      </trkpt>
      <trkpt lat="46.51481" lon="4.88013">
        <ele>274</ele>
        <time>2020-09-22T10:59:07Z</time>
      </trkpt>
      <trkpt lat="46.51479" lon="4.88">
        <ele>273</ele>
        <time>2020-09-22T10:59:10Z</time>
      </trkpt>
      <trkpt lat="46.51462" lon="4.87962">
        <ele>273</ele>
        <time>2020-09-22T10:59:17Z</time>
      </trkpt>
      <trkpt lat="46.51459" lon="4.8795">
        <ele>273</ele>
        <time>2020-09-22T10:59:19Z</time>
      </trkpt>
      <trkpt lat="46.51459" lon="4.87934">
        <ele>272</ele>
        <time>2020-09-22T10:59:21Z</time>
      </trkpt>
      <trkpt lat="46.51475" lon="4.87857">
        <ele>271</ele>
        <time>2020-09-22T10:59:34Z</time>
      </trkpt>
      <trkpt lat="46.51485" lon="4.8782">
        <ele>272</ele>
        <time>2020-09-22T10:59:41Z</time>
      </trkpt>
      <trkpt lat="46.51493" lon="4.878">
        <ele>274</ele>
        <time>2020-09-22T10:59:44Z</time>
      </trkpt>
      <trkpt lat="46.51519" lon="4.87752">
        <ele>276</ele>
        <time>2020-09-22T10:59:54Z</time>
      </trkpt>
      <trkpt lat="46.5154" lon="4.87689">
        <ele>280</ele>
        <time>2020-09-22T11:00:06Z</time>
      </trkpt>
      <trkpt lat="46.51551" lon="4.87632">
        <ele>284</ele>
        <time>2020-09-22T11:00:15Z</time>
      </trkpt>
      <trkpt lat="46.51559" lon="4.87547">
        <ele>289</ele>
        <time>2020-09-22T11:00:29Z</time>
      </trkpt>
      <trkpt lat="46.51567" lon="4.87495">
        <ele>290</ele>
        <time>2020-09-22T11:00:37Z</time>
      </trkpt>
      <trkpt lat="46.5158" lon="4.8746">
        <ele>290</ele>
        <time>2020-09-22T11:00:44Z</time>
      </trkpt>
      <trkpt lat="46.516" lon="4.87423">
        <ele>291</ele>
        <time>2020-09-22T11:00:51Z</time>
      </trkpt>
      <trkpt lat="46.51602" lon="4.87413">
        <ele>292</ele>
        <time>2020-09-22T11:00:53Z</time>
      </trkpt>
      <trkpt lat="46.5159" lon="4.873">
        <ele>292</ele>
        <time>2020-09-22T11:01:11Z</time>
      </trkpt>
      <trkpt lat="46.5159" lon="4.87274">
        <ele>292</ele>
        <time>2020-09-22T11:01:16Z</time>
      </trkpt>
      <trkpt lat="46.51582" lon="4.87285">
        <ele>291</ele>
        <time>2020-09-22T11:01:18Z</time>
      </trkpt>
      <trkpt lat="46.51561" lon="4.87301">
        <ele>292</ele>
        <time>2020-09-22T11:01:24Z</time>
      </trkpt>
      <trkpt lat="46.51547" lon="4.87315">
        <ele>293</ele>
        <time>2020-09-22T11:01:28Z</time>
      </trkpt>
      <trkpt lat="46.51526" lon="4.87416">
        <ele>297</ele>
        <time>2020-09-22T11:01:45Z</time>
      </trkpt>
      <trkpt lat="46.51491" lon="4.87457">
        <ele>300</ele>
        <time>2020-09-22T11:01:55Z</time>
      </trkpt>
      <trkpt lat="46.51409" lon="4.87363">
        <ele>312</ele>
        <time>2020-09-22T11:02:20Z</time>
      </trkpt>
      <trkpt lat="46.51404" lon="4.87341">
        <ele>313</ele>
        <time>2020-09-22T11:02:23Z</time>
      </trkpt>
      <trkpt lat="46.51395" lon="4.87325">
        <ele>313</ele>
        <time>2020-09-22T11:02:27Z</time>
      </trkpt>
      <trkpt lat="46.51387" lon="4.87317">
        <ele>312</ele>
        <time>2020-09-22T11:02:29Z</time>
      </trkpt>
      <trkpt lat="46.51366" lon="4.87305">
        <ele>313</ele>
        <time>2020-09-22T11:02:34Z</time>
      </trkpt>
      <trkpt lat="46.51312" lon="4.87281">
        <ele>314</ele>
        <time>2020-09-22T11:02:47Z</time>
      </trkpt>
      <trkpt lat="46.51288" lon="4.87262">
        <ele>314</ele>
        <time>2020-09-22T11:02:54Z</time>
      </trkpt>
      <trkpt lat="46.51248" lon="4.87252">
        <ele>315</ele>
        <time>2020-09-22T11:03:03Z</time>
      </trkpt>
      <trkpt lat="46.5122" lon="4.87226">
        <ele>311</ele>
        <time>2020-09-22T11:03:11Z</time>
      </trkpt>
      <trkpt lat="46.51171" lon="4.87206">
        <ele>309</ele>
        <time>2020-09-22T11:03:23Z</time>
      </trkpt>
      <trkpt lat="46.51145" lon="4.87199">
        <ele>308</ele>
        <time>2020-09-22T11:03:29Z</time>
      </trkpt>
      <trkpt lat="46.51116" lon="4.87198">
        <ele>308</ele>
        <time>2020-09-22T11:03:36Z</time>
      </trkpt>
      <trkpt lat="46.51095" lon="4.87192">
        <ele>307</ele>
        <time>2020-09-22T11:03:41Z</time>
      </trkpt>
      <trkpt lat="46.51079" lon="4.87192">
        <ele>307</ele>
        <time>2020-09-22T11:03:44Z</time>
      </trkpt>
      <trkpt lat="46.51048" lon="4.87186">
        <ele>305</ele>
        <time>2020-09-22T11:03:52Z</time>
      </trkpt>
      <trkpt lat="46.51001" lon="4.87163">
        <ele>302</ele>
        <time>2020-09-22T11:04:03Z</time>
      </trkpt>
      <trkpt lat="46.50986" lon="4.87154">
        <ele>299</ele>
        <time>2020-09-22T11:04:07Z</time>
      </trkpt>
      <trkpt lat="46.50966" lon="4.87137">
        <ele>296</ele>
        <time>2020-09-22T11:04:13Z</time>
      </trkpt>
      <trkpt lat="46.50944" lon="4.87128">
        <ele>294</ele>
        <time>2020-09-22T11:04:18Z</time>
      </trkpt>
      <trkpt lat="46.50909" lon="4.87119">
        <ele>292</ele>
        <time>2020-09-22T11:04:26Z</time>
      </trkpt>
      <trkpt lat="46.50892" lon="4.87117">
        <ele>291</ele>
        <time>2020-09-22T11:04:30Z</time>
      </trkpt>
      <trkpt lat="46.50859" lon="4.87106">
        <ele>289</ele>
        <time>2020-09-22T11:04:38Z</time>
      </trkpt>
      <trkpt lat="46.50831" lon="4.8712">
        <ele>286</ele>
        <time>2020-09-22T11:04:45Z</time>
      </trkpt>
      <trkpt lat="46.50799" lon="4.87116">
        <ele>283</ele>
        <time>2020-09-22T11:04:53Z</time>
      </trkpt>
      <trkpt lat="46.50765" lon="4.87118">
        <ele>279</ele>
        <time>2020-09-22T11:05:00Z</time>
      </trkpt>
      <trkpt lat="46.50735" lon="4.87114">
        <ele>276</ele>
        <time>2020-09-22T11:05:08Z</time>
      </trkpt>
      <trkpt lat="46.50714" lon="4.87096">
        <ele>272</ele>
        <time>2020-09-22T11:05:13Z</time>
      </trkpt>
      <trkpt lat="46.50709" lon="4.87113">
        <ele>272</ele>
        <time>2020-09-22T11:05:16Z</time>
      </trkpt>
      <trkpt lat="46.50709" lon="4.87133">
        <ele>274</ele>
        <time>2020-09-22T11:05:19Z</time>
      </trkpt>
      <trkpt lat="46.50718" lon="4.87314">
        <ele>269</ele>
        <time>2020-09-22T11:05:49Z</time>
      </trkpt>
      <trkpt lat="46.50725" lon="4.87397">
        <ele>267</ele>
        <time>2020-09-22T11:06:02Z</time>
      </trkpt>
      <trkpt lat="46.50723" lon="4.87414">
        <ele>267</ele>
        <time>2020-09-22T11:06:05Z</time>
      </trkpt>
      <trkpt lat="46.50717" lon="4.87432">
        <ele>267</ele>
        <time>2020-09-22T11:06:08Z</time>
      </trkpt>
      <trkpt lat="46.50698" lon="4.87476">
        <ele>268</ele>
        <time>2020-09-22T11:06:16Z</time>
      </trkpt>
      <trkpt lat="46.50688" lon="4.87531">
        <ele>269</ele>
        <time>2020-09-22T11:06:25Z</time>
      </trkpt>
      <trkpt lat="46.50689" lon="4.87558">
        <ele>271</ele>
        <time>2020-09-22T11:06:30Z</time>
      </trkpt>
      <trkpt lat="46.5068" lon="4.87675">
        <ele>269</ele>
        <time>2020-09-22T11:06:49Z</time>
      </trkpt>
      <trkpt lat="46.50682" lon="4.87829">
        <ele>265</ele>
        <time>2020-09-22T11:07:13Z</time>
      </trkpt>
      <trkpt lat="46.50676" lon="4.87889">
        <ele>262</ele>
        <time>2020-09-22T11:07:23Z</time>
      </trkpt>
      <trkpt lat="46.50658" lon="4.88001">
        <ele>257</ele>
        <time>2020-09-22T11:07:42Z</time>
      </trkpt>
      <trkpt lat="46.50652" lon="4.88029">
        <ele>256</ele>
        <time>2020-09-22T11:07:46Z</time>
      </trkpt>
      <trkpt lat="46.50644" lon="4.88044">
        <ele>254</ele>
        <time>2020-09-22T11:07:49Z</time>
      </trkpt>
      <trkpt lat="46.50579" lon="4.88206">
        <ele>245</ele>
        <time>2020-09-22T11:08:20Z</time>
      </trkpt>
      <trkpt lat="46.50532" lon="4.88314">
        <ele>238</ele>
        <time>2020-09-22T11:08:40Z</time>
      </trkpt>
      <trkpt lat="46.50514" lon="4.88351">
        <ele>236</ele>
        <time>2020-09-22T11:08:47Z</time>
      </trkpt>
      <trkpt lat="46.50485" lon="4.88394">
        <ele>233</ele>
        <time>2020-09-22T11:08:57Z</time>
      </trkpt>
      <trkpt lat="46.50467" lon="4.88426">
        <ele>231</ele>
        <time>2020-09-22T11:09:04Z</time>
      </trkpt>
      <trkpt lat="46.50433" lon="4.88493">
        <ele>229</ele>
        <time>2020-09-22T11:09:17Z</time>
      </trkpt>
      <trkpt lat="46.50425" lon="4.88505">
        <ele>228</ele>
        <time>2020-09-22T11:09:20Z</time>
      </trkpt>
      <trkpt lat="46.50413" lon="4.88514">
        <ele>228</ele>
        <time>2020-09-22T11:09:23Z</time>
      </trkpt>
      <trkpt lat="46.5041" lon="4.88531">
        <ele>227</ele>
        <time>2020-09-22T11:09:26Z</time>
      </trkpt>
      <trkpt lat="46.50411" lon="4.88556">
        <ele>227</ele>
        <time>2020-09-22T11:09:30Z</time>
      </trkpt>
      <trkpt lat="46.50427" lon="4.88589">
        <ele>227</ele>
        <time>2020-09-22T11:09:36Z</time>
      </trkpt>
      <trkpt lat="46.50452" lon="4.88615">
        <ele>228</ele>
        <time>2020-09-22T11:09:44Z</time>
      </trkpt>
      <trkpt lat="46.50477" lon="4.88631">
        <ele>229</ele>
        <time>2020-09-22T11:09:50Z</time>
      </trkpt>
      <trkpt lat="46.50508" lon="4.88656">
        <ele>231</ele>
        <time>2020-09-22T11:09:58Z</time>
      </trkpt>
      <trkpt lat="46.50537" lon="4.8869">
        <ele>232</ele>
        <time>2020-09-22T11:10:07Z</time>
      </trkpt>
      <trkpt lat="46.50551" lon="4.88702">
        <ele>233</ele>
        <time>2020-09-22T11:10:11Z</time>
      </trkpt>
      <trkpt lat="46.50609" lon="4.88731">
        <ele>235</ele>
        <time>2020-09-22T11:10:25Z</time>
      </trkpt>
      <trkpt lat="46.50622" lon="4.88741">
        <ele>235</ele>
        <time>2020-09-22T11:10:28Z</time>
      </trkpt>
      <trkpt lat="46.50698" lon="4.88818">
        <ele>239</ele>
        <time>2020-09-22T11:10:50Z</time>
      </trkpt>
      <trkpt lat="46.50714" lon="4.88837">
        <ele>240</ele>
        <time>2020-09-22T11:10:55Z</time>
      </trkpt>
      <trkpt lat="46.50728" lon="4.88825">
        <ele>241</ele>
        <time>2020-09-22T11:10:59Z</time>
      </trkpt>
      <trkpt lat="46.50732" lon="4.88817">
        <ele>242</ele>
        <time>2020-09-22T11:11:00Z</time>
      </trkpt>
      <trkpt lat="46.50752" lon="4.88821">
        <ele>243</ele>
        <time>2020-09-22T11:11:05Z</time>
      </trkpt>
      <trkpt lat="46.50771" lon="4.88831">
        <ele>245</ele>
        <time>2020-09-22T11:11:10Z</time>
      </trkpt>
      <trkpt lat="46.50795" lon="4.88853">
        <ele>247</ele>
        <time>2020-09-22T11:11:16Z</time>
      </trkpt>
      <trkpt lat="46.50874" lon="4.88945">
        <ele>249</ele>
        <time>2020-09-22T11:11:40Z</time>
      </trkpt>
      <trkpt lat="46.50906" lon="4.88989">
        <ele>249</ele>
        <time>2020-09-22T11:11:50Z</time>
      </trkpt>
      <trkpt lat="46.50947" lon="4.89064">
        <ele>250</ele>
        <time>2020-09-22T11:12:06Z</time>
      </trkpt>
      <trkpt lat="46.50988" lon="4.89122">
        <ele>253</ele>
        <time>2020-09-22T11:12:19Z</time>
      </trkpt>
      <trkpt lat="46.51073" lon="4.89221">
        <ele>258</ele>
        <time>2020-09-22T11:12:44Z</time>
      </trkpt>
      <trkpt lat="46.51085" lon="4.89211">
        <ele>260</ele>
        <time>2020-09-22T11:12:48Z</time>
      </trkpt>
      <trkpt lat="46.51073" lon="4.89221">
        <ele>258</ele>
        <time>2020-09-22T11:12:51Z</time>
      </trkpt>
      <trkpt lat="46.51122" lon="4.8928">
        <ele>259</ele>
        <time>2020-09-22T11:13:06Z</time>
      </trkpt>
      <trkpt lat="46.5118" lon="4.89326">
        <ele>260</ele>
        <time>2020-09-22T11:13:21Z</time>
      </trkpt>
      <trkpt lat="46.51235" lon="4.89363">
        <ele>261</ele>
        <time>2020-09-22T11:13:35Z</time>
      </trkpt>
      <trkpt lat="46.51322" lon="4.894">
        <ele>259</ele>
        <time>2020-09-22T11:13:57Z</time>
      </trkpt>
      <trkpt lat="46.51347" lon="4.89415">
        <ele>258</ele>
        <time>2020-09-22T11:14:03Z</time>
      </trkpt>
      <trkpt lat="46.51363" lon="4.8943">
        <ele>257</ele>
        <time>2020-09-22T11:14:07Z</time>
      </trkpt>
      <trkpt lat="46.51384" lon="4.89464">
        <ele>254</ele>
        <time>2020-09-22T11:14:15Z</time>
      </trkpt>
      <trkpt lat="46.51422" lon="4.895">
        <ele>252</ele>
        <time>2020-09-22T11:14:25Z</time>
      </trkpt>
      <trkpt lat="46.51415" lon="4.89507">
        <ele>251</ele>
        <time>2020-09-22T11:14:27Z</time>
      </trkpt>
      <trkpt lat="46.51422" lon="4.895">
        <ele>252</ele>
        <time>2020-09-22T11:14:29Z</time>
      </trkpt>
      <trkpt lat="46.51449" lon="4.89507">
        <ele>253</ele>
        <time>2020-09-22T11:14:36Z</time>
      </trkpt>
      <trkpt lat="46.51506" lon="4.89539">
        <ele>252</ele>
        <time>2020-09-22T11:14:50Z</time>
      </trkpt>
      <trkpt lat="46.51514" lon="4.89541">
        <ele>253</ele>
        <time>2020-09-22T11:14:52Z</time>
      </trkpt>
      <trkpt lat="46.51529" lon="4.89574">
        <ele>252</ele>
        <time>2020-09-22T11:14:58Z</time>
      </trkpt>
      <trkpt lat="46.51542" lon="4.89589">
        <ele>253</ele>
        <time>2020-09-22T11:15:02Z</time>
      </trkpt>
      <trkpt lat="46.51566" lon="4.89658">
        <ele>251</ele>
        <time>2020-09-22T11:15:14Z</time>
      </trkpt>
      <trkpt lat="46.51581" lon="4.89686">
        <ele>250</ele>
        <time>2020-09-22T11:15:20Z</time>
      </trkpt>
      <trkpt lat="46.51611" lon="4.89733">
        <ele>249</ele>
        <time>2020-09-22T11:15:30Z</time>
      </trkpt>
      <trkpt lat="46.517" lon="4.89857">
        <ele>251</ele>
        <time>2020-09-22T11:15:59Z</time>
      </trkpt>
      <trkpt lat="46.51724" lon="4.899">
        <ele>252</ele>
        <time>2020-09-22T11:16:08Z</time>
      </trkpt>
      <trkpt lat="46.51724" lon="4.89909">
        <ele>252</ele>
        <time>2020-09-22T11:16:10Z</time>
      </trkpt>
      <trkpt lat="46.51724" lon="4.89907">
        <ele>252</ele>
        <time>2020-09-22T11:16:10Z</time>
      </trkpt>
      <trkpt lat="46.5174" lon="4.89936">
        <ele>252</ele>
        <time>2020-09-22T11:16:16Z</time>
      </trkpt>
      <trkpt lat="46.51837" lon="4.89996">
        <ele>262</ele>
        <time>2020-09-22T11:16:40Z</time>
      </trkpt>
      <trkpt lat="46.51848" lon="4.90001">
        <ele>263</ele>
        <time>2020-09-22T11:16:43Z</time>
      </trkpt>
      <trkpt lat="46.51868" lon="4.90001">
        <ele>266</ele>
        <time>2020-09-22T11:16:48Z</time>
      </trkpt>
      <trkpt lat="46.51885" lon="4.90005">
        <ele>268</ele>
        <time>2020-09-22T11:16:52Z</time>
      </trkpt>
      <trkpt lat="46.51988" lon="4.90078">
        <ele>274</ele>
        <time>2020-09-22T11:17:19Z</time>
      </trkpt>
      <trkpt lat="46.5208" lon="4.90128">
        <ele>280</ele>
        <time>2020-09-22T11:17:42Z</time>
      </trkpt>
      <trkpt lat="46.52182" lon="4.90208">
        <ele>280</ele>
        <time>2020-09-22T11:18:09Z</time>
      </trkpt>
      <trkpt lat="46.52208" lon="4.90224">
        <ele>281</ele>
        <time>2020-09-22T11:18:15Z</time>
      </trkpt>
      <trkpt lat="46.52317" lon="4.90253">
        <ele>289</ele>
        <time>2020-09-22T11:18:41Z</time>
      </trkpt>
      <trkpt lat="46.52373" lon="4.9029">
        <ele>292</ele>
        <time>2020-09-22T11:18:55Z</time>
      </trkpt>
      <trkpt lat="46.52387" lon="4.90293">
        <ele>294</ele>
        <time>2020-09-22T11:18:59Z</time>
      </trkpt>
      <trkpt lat="46.52455" lon="4.90297">
        <ele>298</ele>
        <time>2020-09-22T11:19:15Z</time>
      </trkpt>
      <trkpt lat="46.52504" lon="4.90353">
        <ele>295</ele>
        <time>2020-09-22T11:19:29Z</time>
      </trkpt>
      <trkpt lat="46.52624" lon="4.90453">
        <ele>289</ele>
        <time>2020-09-22T11:20:02Z</time>
      </trkpt>
      <trkpt lat="46.52679" lon="4.90475">
        <ele>289</ele>
        <time>2020-09-22T11:20:15Z</time>
      </trkpt>
      <trkpt lat="46.52696" lon="4.90495">
        <ele>288</ele>
        <time>2020-09-22T11:20:20Z</time>
      </trkpt>
      <trkpt lat="46.52703" lon="4.90528">
        <ele>286</ele>
        <time>2020-09-22T11:20:26Z</time>
      </trkpt>
      <trkpt lat="46.52702" lon="4.90556">
        <ele>284</ele>
        <time>2020-09-22T11:20:30Z</time>
      </trkpt>
      <trkpt lat="46.52644" lon="4.90651">
        <ele>271</ele>
        <time>2020-09-22T11:20:50Z</time>
      </trkpt>
      <trkpt lat="46.52608" lon="4.90737">
        <ele>256</ele>
        <time>2020-09-22T11:21:07Z</time>
      </trkpt>
      <trkpt lat="46.52608" lon="4.90743">
        <ele>255</ele>
        <time>2020-09-22T11:21:08Z</time>
      </trkpt>
      <trkpt lat="46.52611" lon="4.90751">
        <ele>255</ele>
        <time>2020-09-22T11:21:09Z</time>
      </trkpt>
      <trkpt lat="46.52628" lon="4.9076">
        <ele>256</ele>
        <time>2020-09-22T11:21:13Z</time>
      </trkpt>
      <trkpt lat="46.52641" lon="4.90771">
        <ele>257</ele>
        <time>2020-09-22T11:21:17Z</time>
      </trkpt>
      <trkpt lat="46.52687" lon="4.90823">
        <ele>256</ele>
        <time>2020-09-22T11:21:30Z</time>
      </trkpt>
      <trkpt lat="46.52709" lon="4.90863">
        <ele>254</ele>
        <time>2020-09-22T11:21:39Z</time>
      </trkpt>
      <trkpt lat="46.52703" lon="4.90951">
        <ele>244</ele>
        <time>2020-09-22T11:21:53Z</time>
      </trkpt>
      <trkpt lat="46.52713" lon="4.90998">
        <ele>241</ele>
        <time>2020-09-22T11:22:01Z</time>
      </trkpt>
      <trkpt lat="46.52683" lon="4.91104">
        <ele>237</ele>
        <time>2020-09-22T11:22:19Z</time>
      </trkpt>
      <trkpt lat="46.52775" lon="4.91145">
        <ele>236</ele>
        <time>2020-09-22T11:22:42Z</time>
      </trkpt>
      <trkpt lat="46.52863" lon="4.91173">
        <ele>236</ele>
        <time>2020-09-22T11:23:03Z</time>
      </trkpt>
      <trkpt lat="46.52953" lon="4.91265">
        <ele>236</ele>
        <time>2020-09-22T11:23:28Z</time>
      </trkpt>
      <trkpt lat="46.52986" lon="4.91293">
        <ele>235</ele>
        <time>2020-09-22T11:23:37Z</time>
      </trkpt>
      <trkpt lat="46.53052" lon="4.91335">
        <ele>230</ele>
        <time>2020-09-22T11:23:54Z</time>
      </trkpt>
      <trkpt lat="46.53162" lon="4.91365">
        <ele>225</ele>
        <time>2020-09-22T11:24:20Z</time>
      </trkpt>
      <trkpt lat="46.5321" lon="4.91388">
        <ele>224</ele>
        <time>2020-09-22T11:24:32Z</time>
      </trkpt>
      <trkpt lat="46.53232" lon="4.91413">
        <ele>223</ele>
        <time>2020-09-22T11:24:39Z</time>
      </trkpt>
      <trkpt lat="46.53268" lon="4.91492">
        <ele>222</ele>
        <time>2020-09-22T11:24:54Z</time>
      </trkpt>
      <trkpt lat="46.5329" lon="4.91512">
        <ele>222</ele>
        <time>2020-09-22T11:25:00Z</time>
      </trkpt>
      <trkpt lat="46.5332" lon="4.91533">
        <ele>221</ele>
        <time>2020-09-22T11:25:08Z</time>
      </trkpt>
      <trkpt lat="46.53348" lon="4.91549">
        <ele>221</ele>
        <time>2020-09-22T11:25:15Z</time>
      </trkpt>
      <trkpt lat="46.53358" lon="4.91562">
        <ele>221</ele>
        <time>2020-09-22T11:25:18Z</time>
      </trkpt>
      <trkpt lat="46.5337" lon="4.91591">
        <ele>221</ele>
        <time>2020-09-22T11:25:23Z</time>
      </trkpt>
      <trkpt lat="46.53385" lon="4.91599">
        <ele>221</ele>
        <time>2020-09-22T11:25:27Z</time>
      </trkpt>
      <trkpt lat="46.53415" lon="4.91606">
        <ele>221</ele>
        <time>2020-09-22T11:25:34Z</time>
      </trkpt>
      <trkpt lat="46.53527" lon="4.91606">
        <ele>222</ele>
        <time>2020-09-22T11:26:00Z</time>
      </trkpt>
      <trkpt lat="46.53544" lon="4.91609">
        <ele>222</ele>
        <time>2020-09-22T11:26:04Z</time>
      </trkpt>
      <trkpt lat="46.53608" lon="4.91629">
        <ele>222</ele>
        <time>2020-09-22T11:26:19Z</time>
      </trkpt>
      <trkpt lat="46.53651" lon="4.91637">
        <ele>223</ele>
        <time>2020-09-22T11:26:30Z</time>
      </trkpt>
      <trkpt lat="46.537" lon="4.91638">
        <ele>222</ele>
        <time>2020-09-22T11:26:41Z</time>
      </trkpt>
      <trkpt lat="46.53746" lon="4.91631">
        <ele>222</ele>
        <time>2020-09-22T11:26:52Z</time>
      </trkpt>
      <trkpt lat="46.53759" lon="4.91631">
        <ele>222</ele>
        <time>2020-09-22T11:26:55Z</time>
      </trkpt>
      <trkpt lat="46.53773" lon="4.91635">
        <ele>221</ele>
        <time>2020-09-22T11:26:58Z</time>
      </trkpt>
      <trkpt lat="46.53768" lon="4.91652">
        <ele>221</ele>
        <time>2020-09-22T11:27:01Z</time>
      </trkpt>
      <trkpt lat="46.53773" lon="4.91635">
        <ele>221</ele>
        <time>2020-09-22T11:27:04Z</time>
      </trkpt>
      <trkpt lat="46.53805" lon="4.91641">
        <ele>221</ele>
        <time>2020-09-22T11:27:12Z</time>
      </trkpt>
      <trkpt lat="46.53827" lon="4.91641">
        <ele>221</ele>
        <time>2020-09-22T11:27:17Z</time>
      </trkpt>
      <trkpt lat="46.53859" lon="4.91638">
        <ele>221</ele>
        <time>2020-09-22T11:27:24Z</time>
      </trkpt>
      <trkpt lat="46.53932" lon="4.91626">
        <ele>222</ele>
        <time>2020-09-22T11:27:41Z</time>
      </trkpt>
      <trkpt lat="46.53959" lon="4.91623">
        <ele>222</ele>
        <time>2020-09-22T11:27:48Z</time>
      </trkpt>
      <trkpt lat="46.53972" lon="4.91624">
        <ele>223</ele>
        <time>2020-09-22T11:27:51Z</time>
      </trkpt>
      <trkpt lat="46.54021" lon="4.91636">
        <ele>223</ele>
        <time>2020-09-22T11:28:02Z</time>
      </trkpt>
      <trkpt lat="46.54109" lon="4.91669">
        <ele>224</ele>
        <time>2020-09-22T11:28:24Z</time>
      </trkpt>
      <trkpt lat="46.5417" lon="4.91682">
        <ele>223</ele>
        <time>2020-09-22T11:28:38Z</time>
      </trkpt>
      <trkpt lat="46.54212" lon="4.91674">
        <ele>223</ele>
        <time>2020-09-22T11:28:48Z</time>
      </trkpt>
      <trkpt lat="46.54277" lon="4.91671">
        <ele>223</ele>
        <time>2020-09-22T11:29:03Z</time>
      </trkpt>
      <trkpt lat="46.5431" lon="4.91662">
        <ele>222</ele>
        <time>2020-09-22T11:29:11Z</time>
      </trkpt>
      <trkpt lat="46.54264" lon="4.91591">
        <ele>226</ele>
        <time>2020-09-22T11:29:27Z</time>
      </trkpt>
      <trkpt lat="46.54252" lon="4.91584">
        <ele>226</ele>
        <time>2020-09-22T11:29:30Z</time>
      </trkpt>
      <trkpt lat="46.54228" lon="4.91561">
        <ele>226</ele>
        <time>2020-09-22T11:29:36Z</time>
      </trkpt>
      <trkpt lat="46.54193" lon="4.91514">
        <ele>227</ele>
        <time>2020-09-22T11:29:48Z</time>
      </trkpt>
      <trkpt lat="46.54153" lon="4.91474">
        <ele>229</ele>
        <time>2020-09-22T11:29:59Z</time>
      </trkpt>
      <trkpt lat="46.54113" lon="4.9145">
        <ele>230</ele>
        <time>2020-09-22T11:30:09Z</time>
      </trkpt>
      <trkpt lat="46.54097" lon="4.91446">
        <ele>230</ele>
        <time>2020-09-22T11:30:13Z</time>
      </trkpt>
      <trkpt lat="46.54056" lon="4.91453">
        <ele>230</ele>
        <time>2020-09-22T11:30:22Z</time>
      </trkpt>
      <trkpt lat="46.54051" lon="4.91447">
        <ele>230</ele>
        <time>2020-09-22T11:30:24Z</time>
      </trkpt>
      <trkpt lat="46.54049" lon="4.91395">
        <ele>233</ele>
        <time>2020-09-22T11:30:32Z</time>
      </trkpt>
      <trkpt lat="46.54053" lon="4.91256">
        <ele>249</ele>
        <time>2020-09-22T11:30:55Z</time>
      </trkpt>
      <trkpt lat="46.54041" lon="4.91231">
        <ele>251</ele>
        <time>2020-09-22T11:31:00Z</time>
      </trkpt>
      <trkpt lat="46.53995" lon="4.91181">
        <ele>256</ele>
        <time>2020-09-22T11:31:13Z</time>
      </trkpt>
      <trkpt lat="46.53961" lon="4.91102">
        <ele>259</ele>
        <time>2020-09-22T11:31:28Z</time>
      </trkpt>
      <trkpt lat="46.53941" lon="4.91043">
        <ele>259</ele>
        <time>2020-09-22T11:31:38Z</time>
      </trkpt>
      <trkpt lat="46.53939" lon="4.90997">
        <ele>256</ele>
        <time>2020-09-22T11:31:46Z</time>
      </trkpt>
      <trkpt lat="46.53961" lon="4.90963">
        <ele>253</ele>
        <time>2020-09-22T11:31:53Z</time>
      </trkpt>
      <trkpt lat="46.54034" lon="4.90837">
        <ele>240</ele>
        <time>2020-09-22T11:32:20Z</time>
      </trkpt>
      <trkpt lat="46.54067" lon="4.90786">
        <ele>235</ele>
        <time>2020-09-22T11:32:31Z</time>
      </trkpt>
      <trkpt lat="46.54035" lon="4.90779">
        <ele>237</ele>
        <time>2020-09-22T11:32:39Z</time>
      </trkpt>
      <trkpt lat="46.53955" lon="4.90695">
        <ele>241</ele>
        <time>2020-09-22T11:33:02Z</time>
      </trkpt>
      <trkpt lat="46.53954" lon="4.9069">
        <ele>241</ele>
        <time>2020-09-22T11:33:03Z</time>
      </trkpt>
      <trkpt lat="46.53955" lon="4.90683">
        <ele>240</ele>
        <time>2020-09-22T11:33:04Z</time>
      </trkpt>
      <trkpt lat="46.54046" lon="4.90511">
        <ele>224</ele>
        <time>2020-09-22T11:33:39Z</time>
      </trkpt>
      <trkpt lat="46.54052" lon="4.90496">
        <ele>223</ele>
        <time>2020-09-22T11:33:41Z</time>
      </trkpt>
      <trkpt lat="46.54055" lon="4.90477">
        <ele>221</ele>
        <time>2020-09-22T11:33:44Z</time>
      </trkpt>
      <trkpt lat="46.54048" lon="4.90468">
        <ele>222</ele>
        <time>2020-09-22T11:33:47Z</time>
      </trkpt>
      <trkpt lat="46.54034" lon="4.90441">
        <ele>222</ele>
        <time>2020-09-22T11:33:52Z</time>
      </trkpt>
      <trkpt lat="46.54015" lon="4.90391">
        <ele>223</ele>
        <time>2020-09-22T11:34:01Z</time>
      </trkpt>
      <trkpt lat="46.54008" lon="4.90359">
        <ele>222</ele>
        <time>2020-09-22T11:34:07Z</time>
      </trkpt>
      <trkpt lat="46.53998" lon="4.9028">
        <ele>221</ele>
        <time>2020-09-22T11:34:20Z</time>
      </trkpt>
      <trkpt lat="46.53964" lon="4.90155">
        <ele>220</ele>
        <time>2020-09-22T11:34:41Z</time>
      </trkpt>
      <trkpt lat="46.53954" lon="4.90103">
        <ele>222</ele>
        <time>2020-09-22T11:34:50Z</time>
      </trkpt>
      <trkpt lat="46.53934" lon="4.8995">
        <ele>223</ele>
        <time>2020-09-22T11:35:15Z</time>
      </trkpt>
      <trkpt lat="46.53932" lon="4.89894">
        <ele>221</ele>
        <time>2020-09-22T11:35:24Z</time>
      </trkpt>
      <trkpt lat="46.53926" lon="4.89848">
        <ele>220</ele>
        <time>2020-09-22T11:35:31Z</time>
      </trkpt>
      <trkpt lat="46.53926" lon="4.89784">
        <ele>217</ele>
        <time>2020-09-22T11:35:42Z</time>
      </trkpt>
      <trkpt lat="46.53923" lon="4.89768">
        <ele>216</ele>
        <time>2020-09-22T11:35:44Z</time>
      </trkpt>
      <trkpt lat="46.53909" lon="4.89733">
        <ele>215</ele>
        <time>2020-09-22T11:35:51Z</time>
      </trkpt>
      <trkpt lat="46.53907" lon="4.89714">
        <ele>214</ele>
        <time>2020-09-22T11:35:54Z</time>
      </trkpt>
      <trkpt lat="46.53908" lon="4.89693">
        <ele>214</ele>
        <time>2020-09-22T11:35:57Z</time>
      </trkpt>
      <trkpt lat="46.53913" lon="4.89673">
        <ele>213</ele>
        <time>2020-09-22T11:36:01Z</time>
      </trkpt>
      <trkpt lat="46.53941" lon="4.89614">
        <ele>214</ele>
        <time>2020-09-22T11:36:12Z</time>
      </trkpt>
      <trkpt lat="46.53952" lon="4.89563">
        <ele>214</ele>
        <time>2020-09-22T11:36:21Z</time>
      </trkpt>
      <trkpt lat="46.53951" lon="4.89542">
        <ele>215</ele>
        <time>2020-09-22T11:36:24Z</time>
      </trkpt>
      <trkpt lat="46.53945" lon="4.89526">
        <ele>215</ele>
        <time>2020-09-22T11:36:27Z</time>
      </trkpt>
      <trkpt lat="46.53893" lon="4.89472">
        <ele>218</ele>
        <time>2020-09-22T11:36:42Z</time>
      </trkpt>
      <trkpt lat="46.53878" lon="4.89451">
        <ele>219</ele>
        <time>2020-09-22T11:36:47Z</time>
      </trkpt>
      <trkpt lat="46.53857" lon="4.89406">
        <ele>221</ele>
        <time>2020-09-22T11:36:56Z</time>
      </trkpt>
      <trkpt lat="46.53847" lon="4.89363">
        <ele>222</ele>
        <time>2020-09-22T11:37:03Z</time>
      </trkpt>
      <trkpt lat="46.53843" lon="4.89315">
        <ele>223</ele>
        <time>2020-09-22T11:37:11Z</time>
      </trkpt>
      <trkpt lat="46.53828" lon="4.8922">
        <ele>226</ele>
        <time>2020-09-22T11:37:26Z</time>
      </trkpt>
      <trkpt lat="46.53811" lon="4.89214">
        <ele>226</ele>
        <time>2020-09-22T11:37:30Z</time>
      </trkpt>
      <trkpt lat="46.53812" lon="4.89128">
        <ele>229</ele>
        <time>2020-09-22T11:37:44Z</time>
      </trkpt>
      <trkpt lat="46.53809" lon="4.89006">
        <ele>230</ele>
        <time>2020-09-22T11:38:04Z</time>
      </trkpt>
      <trkpt lat="46.53812" lon="4.88876">
        <ele>238</ele>
        <time>2020-09-22T11:38:25Z</time>
      </trkpt>
      <trkpt lat="46.53802" lon="4.88857">
        <ele>240</ele>
        <time>2020-09-22T11:38:29Z</time>
      </trkpt>
      <trkpt lat="46.53799" lon="4.88839">
        <ele>241</ele>
        <time>2020-09-22T11:38:32Z</time>
      </trkpt>
      <trkpt lat="46.53808" lon="4.88768">
        <ele>246</ele>
        <time>2020-09-22T11:38:43Z</time>
      </trkpt>
      <trkpt lat="46.53807" lon="4.88744">
        <ele>248</ele>
        <time>2020-09-22T11:38:47Z</time>
      </trkpt>
      <trkpt lat="46.53801" lon="4.88717">
        <ele>248</ele>
        <time>2020-09-22T11:38:52Z</time>
      </trkpt>
      <trkpt lat="46.53803" lon="4.88705">
        <ele>249</ele>
        <time>2020-09-22T11:38:54Z</time>
      </trkpt>
      <trkpt lat="46.53817" lon="4.88673">
        <ele>251</ele>
        <time>2020-09-22T11:39:00Z</time>
      </trkpt>
      <trkpt lat="46.53773" lon="4.88565">
        <ele>254</ele>
        <time>2020-09-22T11:39:20Z</time>
      </trkpt>
      <trkpt lat="46.5375" lon="4.88518">
        <ele>254</ele>
        <time>2020-09-22T11:39:29Z</time>
      </trkpt>
      <trkpt lat="46.53696" lon="4.88443">
        <ele>256</ele>
        <time>2020-09-22T11:39:46Z</time>
      </trkpt>
      <trkpt lat="46.53632" lon="4.88388">
        <ele>257</ele>
        <time>2020-09-22T11:40:04Z</time>
      </trkpt>
      <trkpt lat="46.53615" lon="4.88367">
        <ele>258</ele>
        <time>2020-09-22T11:40:09Z</time>
      </trkpt>
      <trkpt lat="46.53602" lon="4.88334">
        <ele>260</ele>
        <time>2020-09-22T11:40:15Z</time>
      </trkpt>
      <trkpt lat="46.53583" lon="4.88265">
        <ele>267</ele>
        <time>2020-09-22T11:40:27Z</time>
      </trkpt>
      <trkpt lat="46.53571" lon="4.88238">
        <ele>270</ele>
        <time>2020-09-22T11:40:32Z</time>
      </trkpt>
      <trkpt lat="46.53555" lon="4.88211">
        <ele>271</ele>
        <time>2020-09-22T11:40:38Z</time>
      </trkpt>
      <trkpt lat="46.53527" lon="4.88174">
        <ele>274</ele>
        <time>2020-09-22T11:40:47Z</time>
      </trkpt>
      <trkpt lat="46.53469" lon="4.88084">
        <ele>280</ele>
        <time>2020-09-22T11:41:07Z</time>
      </trkpt>
      <trkpt lat="46.53456" lon="4.88062">
        <ele>281</ele>
        <time>2020-09-22T11:41:11Z</time>
      </trkpt>
      <trkpt lat="46.5341" lon="4.87969">
        <ele>287</ele>
        <time>2020-09-22T11:41:30Z</time>
      </trkpt>
      <trkpt lat="46.53349" lon="4.87885">
        <ele>292</ele>
        <time>2020-09-22T11:41:49Z</time>
      </trkpt>
      <trkpt lat="46.53284" lon="4.87754">
        <ele>304</ele>
        <time>2020-09-22T11:42:15Z</time>
      </trkpt>
      <trkpt lat="46.53274" lon="4.87726">
        <ele>305</ele>
        <time>2020-09-22T11:42:20Z</time>
      </trkpt>
      <trkpt lat="46.53272" lon="4.87711">
        <ele>306</ele>
        <time>2020-09-22T11:42:23Z</time>
      </trkpt>
      <trkpt lat="46.53275" lon="4.87703">
        <ele>306</ele>
        <time>2020-09-22T11:42:24Z</time>
      </trkpt>
      <trkpt lat="46.53277" lon="4.87502">
        <ele>294</ele>
        <time>2020-09-22T11:42:57Z</time>
      </trkpt>
      <trkpt lat="46.53281" lon="4.8746">
        <ele>291</ele>
        <time>2020-09-22T11:43:03Z</time>
      </trkpt>
      <trkpt lat="46.53318" lon="4.87457">
        <ele>292</ele>
        <time>2020-09-22T11:43:12Z</time>
      </trkpt>
      <trkpt lat="46.53343" lon="4.87449">
        <ele>293</ele>
        <time>2020-09-22T11:43:18Z</time>
      </trkpt>
      <trkpt lat="46.53427" lon="4.87431">
        <ele>296</ele>
        <time>2020-09-22T11:43:38Z</time>
      </trkpt>
      <trkpt lat="46.53506" lon="4.87418">
        <ele>299</ele>
        <time>2020-09-22T11:43:56Z</time>
      </trkpt>
      <trkpt lat="46.53528" lon="4.87405">
        <ele>299</ele>
        <time>2020-09-22T11:44:02Z</time>
      </trkpt>
      <trkpt lat="46.53594" lon="4.87382">
        <ele>300</ele>
        <time>2020-09-22T11:44:18Z</time>
      </trkpt>
      <trkpt lat="46.53653" lon="4.87378">
        <ele>302</ele>
        <time>2020-09-22T11:44:32Z</time>
      </trkpt>
      <trkpt lat="46.53687" lon="4.87373">
        <ele>303</ele>
        <time>2020-09-22T11:44:40Z</time>
      </trkpt>
      <trkpt lat="46.53775" lon="4.87354">
        <ele>306</ele>
        <time>2020-09-22T11:45:00Z</time>
      </trkpt>
      <trkpt lat="46.538" lon="4.87351">
        <ele>308</ele>
        <time>2020-09-22T11:45:06Z</time>
      </trkpt>
      <trkpt lat="46.5387" lon="4.87366">
        <ele>314</ele>
        <time>2020-09-22T11:45:23Z</time>
      </trkpt>
      <trkpt lat="46.53882" lon="4.87364">
        <ele>314</ele>
        <time>2020-09-22T11:45:26Z</time>
      </trkpt>
      <trkpt lat="46.5391" lon="4.87349">
        <ele>313</ele>
        <time>2020-09-22T11:45:33Z</time>
      </trkpt>
      <trkpt lat="46.53927" lon="4.87346">
        <ele>313</ele>
        <time>2020-09-22T11:45:37Z</time>
      </trkpt>
      <trkpt lat="46.54008" lon="4.87355">
        <ele>315</ele>
        <time>2020-09-22T11:45:55Z</time>
      </trkpt>
      <trkpt lat="46.54042" lon="4.87364">
        <ele>315</ele>
        <time>2020-09-22T11:46:04Z</time>
      </trkpt>
      <trkpt lat="46.54069" lon="4.87368">
        <ele>315</ele>
        <time>2020-09-22T11:46:10Z</time>
      </trkpt>
      <trkpt lat="46.54099" lon="4.87379">
        <ele>315</ele>
        <time>2020-09-22T11:46:17Z</time>
      </trkpt>
      <trkpt lat="46.54144" lon="4.87404">
        <ele>315</ele>
        <time>2020-09-22T11:46:28Z</time>
      </trkpt>
      <trkpt lat="46.54149" lon="4.87403">
        <ele>315</ele>
        <time>2020-09-22T11:46:30Z</time>
      </trkpt>
      <trkpt lat="46.54152" lon="4.87399">
        <ele>314</ele>
        <time>2020-09-22T11:46:31Z</time>
      </trkpt>
      <trkpt lat="46.54159" lon="4.87365">
        <ele>312</ele>
        <time>2020-09-22T11:46:36Z</time>
      </trkpt>
      <trkpt lat="46.54177" lon="4.87323">
        <ele>309</ele>
        <time>2020-09-22T11:46:44Z</time>
      </trkpt>
      <trkpt lat="46.54194" lon="4.87254">
        <ele>309</ele>
        <time>2020-09-22T11:46:56Z</time>
      </trkpt>
      <trkpt lat="46.54235" lon="4.8727">
        <ele>311</ele>
        <time>2020-09-22T11:47:06Z</time>
      </trkpt>
      <trkpt lat="46.54253" lon="4.87274">
        <ele>311</ele>
        <time>2020-09-22T11:47:10Z</time>
      </trkpt>
      <trkpt lat="46.54309" lon="4.8727">
        <ele>314</ele>
        <time>2020-09-22T11:47:23Z</time>
      </trkpt>
      <trkpt lat="46.54327" lon="4.87277">
        <ele>314</ele>
        <time>2020-09-22T11:47:28Z</time>
      </trkpt>
      <trkpt lat="46.54355" lon="4.87293">
        <ele>313</ele>
        <time>2020-09-22T11:47:35Z</time>
      </trkpt>
      <trkpt lat="46.54377" lon="4.87298">
        <ele>313</ele>
        <time>2020-09-22T11:47:40Z</time>
      </trkpt>
      <trkpt lat="46.54394" lon="4.87298">
        <ele>313</ele>
        <time>2020-09-22T11:47:44Z</time>
      </trkpt>
      <trkpt lat="46.54433" lon="4.87293">
        <ele>316</ele>
        <time>2020-09-22T11:47:53Z</time>
      </trkpt>
      <trkpt lat="46.54448" lon="4.87294">
        <ele>317</ele>
        <time>2020-09-22T11:47:56Z</time>
      </trkpt>
      <trkpt lat="46.54588" lon="4.87332">
        <ele>321</ele>
        <time>2020-09-22T11:48:30Z</time>
      </trkpt>
      <trkpt lat="46.54688" lon="4.87362">
        <ele>321</ele>
        <time>2020-09-22T11:48:53Z</time>
      </trkpt>
      <trkpt lat="46.54851" lon="4.87415">
        <ele>315</ele>
        <time>2020-09-22T11:49:33Z</time>
      </trkpt>
      <trkpt lat="46.54863" lon="4.87415">
        <ele>314</ele>
        <time>2020-09-22T11:49:35Z</time>
      </trkpt>
      <trkpt lat="46.5487" lon="4.8741">
        <ele>314</ele>
        <time>2020-09-22T11:49:37Z</time>
      </trkpt>
      <trkpt lat="46.54879" lon="4.87393">
        <ele>314</ele>
        <time>2020-09-22T11:49:41Z</time>
      </trkpt>
      <trkpt lat="46.54923" lon="4.87283">
        <ele>313</ele>
        <time>2020-09-22T11:50:01Z</time>
      </trkpt>
      <trkpt lat="46.54932" lon="4.87265">
        <ele>313</ele>
        <time>2020-09-22T11:50:05Z</time>
      </trkpt>
      <trkpt lat="46.54937" lon="4.8726">
        <ele>312</ele>
        <time>2020-09-22T11:50:06Z</time>
      </trkpt>
      <trkpt lat="46.54944" lon="4.87258">
        <ele>312</ele>
        <time>2020-09-22T11:50:08Z</time>
      </trkpt>
      <trkpt lat="46.54963" lon="4.8726">
        <ele>310</ele>
        <time>2020-09-22T11:50:12Z</time>
      </trkpt>
      <trkpt lat="46.54972" lon="4.87267">
        <ele>309</ele>
        <time>2020-09-22T11:50:14Z</time>
      </trkpt>
      <trkpt lat="46.54976" lon="4.87289">
        <ele>308</ele>
        <time>2020-09-22T11:50:18Z</time>
      </trkpt>
      <trkpt lat="46.54984" lon="4.87307">
        <ele>306</ele>
        <time>2020-09-22T11:50:22Z</time>
      </trkpt>
      <trkpt lat="46.54993" lon="4.87311">
        <ele>305</ele>
        <time>2020-09-22T11:50:24Z</time>
      </trkpt>
      <trkpt lat="46.54999" lon="4.87281">
        <ele>305</ele>
        <time>2020-09-22T11:50:29Z</time>
      </trkpt>
      <trkpt lat="46.55022" lon="4.87232">
        <ele>307</ele>
        <time>2020-09-22T11:50:38Z</time>
      </trkpt>
      <trkpt lat="46.55062" lon="4.87157">
        <ele>305</ele>
        <time>2020-09-22T11:50:54Z</time>
      </trkpt>
      <trkpt lat="46.55096" lon="4.87111">
        <ele>304</ele>
        <time>2020-09-22T11:51:04Z</time>
      </trkpt>
      <trkpt lat="46.5515" lon="4.87048">
        <ele>300</ele>
        <time>2020-09-22T11:51:21Z</time>
      </trkpt>
      <trkpt lat="46.55166" lon="4.87019">
        <ele>298</ele>
        <time>2020-09-22T11:51:27Z</time>
      </trkpt>
      <trkpt lat="46.55179" lon="4.86988">
        <ele>298</ele>
        <time>2020-09-22T11:51:32Z</time>
      </trkpt>
      <trkpt lat="46.55185" lon="4.86967">
        <ele>299</ele>
        <time>2020-09-22T11:51:36Z</time>
      </trkpt>
      <trkpt lat="46.55207" lon="4.86848">
        <ele>297</ele>
        <time>2020-09-22T11:51:56Z</time>
      </trkpt>
      <trkpt lat="46.55231" lon="4.86767">
        <ele>289</ele>
        <time>2020-09-22T11:52:10Z</time>
      </trkpt>
      <trkpt lat="46.55234" lon="4.86735">
        <ele>286</ele>
        <time>2020-09-22T11:52:15Z</time>
      </trkpt>
      <trkpt lat="46.55229" lon="4.8667">
        <ele>281</ele>
        <time>2020-09-22T11:52:26Z</time>
      </trkpt>
      <trkpt lat="46.55205" lon="4.8658">
        <ele>275</ele>
        <time>2020-09-22T11:52:41Z</time>
      </trkpt>
      <trkpt lat="46.55163" lon="4.86475">
        <ele>273</ele>
        <time>2020-09-22T11:53:01Z</time>
      </trkpt>
      <trkpt lat="46.5513" lon="4.86409">
        <ele>271</ele>
        <time>2020-09-22T11:53:14Z</time>
      </trkpt>
      <trkpt lat="46.55076" lon="4.86274">
        <ele>267</ele>
        <time>2020-09-22T11:53:39Z</time>
      </trkpt>
      <trkpt lat="46.55073" lon="4.86273">
        <ele>267</ele>
        <time>2020-09-22T11:53:40Z</time>
      </trkpt>
      <trkpt lat="46.55076" lon="4.86274">
        <ele>267</ele>
        <time>2020-09-22T11:53:40Z</time>
      </trkpt>
      <trkpt lat="46.55073" lon="4.86257">
        <ele>266</ele>
        <time>2020-09-22T11:53:43Z</time>
      </trkpt>
      <trkpt lat="46.55059" lon="4.86224">
        <ele>264</ele>
        <time>2020-09-22T11:53:49Z</time>
      </trkpt>
      <trkpt lat="46.55036" lon="4.86154">
        <ele>259</ele>
        <time>2020-09-22T11:54:02Z</time>
      </trkpt>
      <trkpt lat="46.55031" lon="4.86094">
        <ele>255</ele>
        <time>2020-09-22T11:54:12Z</time>
      </trkpt>
      <trkpt lat="46.55037" lon="4.85998">
        <ele>252</ele>
        <time>2020-09-22T11:54:27Z</time>
      </trkpt>
      <trkpt lat="46.55033" lon="4.85949">
        <ele>251</ele>
        <time>2020-09-22T11:54:35Z</time>
      </trkpt>
      <trkpt lat="46.55028" lon="4.85918">
        <ele>251</ele>
        <time>2020-09-22T11:54:40Z</time>
      </trkpt>
      <trkpt lat="46.55014" lon="4.85886">
        <ele>251</ele>
        <time>2020-09-22T11:54:46Z</time>
      </trkpt>
      <trkpt lat="46.55001" lon="4.85872">
        <ele>252</ele>
        <time>2020-09-22T11:54:50Z</time>
      </trkpt>
      <trkpt lat="46.54977" lon="4.85851">
        <ele>252</ele>
        <time>2020-09-22T11:54:56Z</time>
      </trkpt>
      <trkpt lat="46.54938" lon="4.85823">
        <ele>252</ele>
        <time>2020-09-22T11:55:07Z</time>
      </trkpt>
      <trkpt lat="46.54905" lon="4.85794">
        <ele>251</ele>
        <time>2020-09-22T11:55:16Z</time>
      </trkpt>
      <trkpt lat="46.54899" lon="4.85787">
        <ele>251</ele>
        <time>2020-09-22T11:55:17Z</time>
      </trkpt>
      <trkpt lat="46.54899" lon="4.85782">
        <ele>251</ele>
        <time>2020-09-22T11:55:18Z</time>
      </trkpt>
      <trkpt lat="46.54974" lon="4.85722">
        <ele>247</ele>
        <time>2020-09-22T11:55:38Z</time>
      </trkpt>
      <trkpt lat="46.5498" lon="4.85718">
        <ele>247</ele>
        <time>2020-09-22T11:55:40Z</time>
      </trkpt>
      <trkpt lat="46.54997" lon="4.85715">
        <ele>247</ele>
        <time>2020-09-22T11:55:44Z</time>
      </trkpt>
      <trkpt lat="46.55018" lon="4.85722">
        <ele>246</ele>
        <time>2020-09-22T11:55:49Z</time>
      </trkpt>
      <trkpt lat="46.55106" lon="4.85773">
        <ele>244</ele>
        <time>2020-09-22T11:56:11Z</time>
      </trkpt>
      <trkpt lat="46.55123" lon="4.85742">
        <ele>242</ele>
        <time>2020-09-22T11:56:17Z</time>
      </trkpt>
      <trkpt lat="46.55174" lon="4.85601">
        <ele>237</ele>
        <time>2020-09-22T11:56:43Z</time>
      </trkpt>
      <trkpt lat="46.55215" lon="4.85479">
        <ele>230</ele>
        <time>2020-09-22T11:57:05Z</time>
      </trkpt>
      <trkpt lat="46.55214" lon="4.85411">
        <ele>229</ele>
        <time>2020-09-22T11:57:16Z</time>
      </trkpt>
      <trkpt lat="46.55221" lon="4.85363">
        <ele>229</ele>
        <time>2020-09-22T11:57:23Z</time>
      </trkpt>
      <trkpt lat="46.55227" lon="4.85343">
        <ele>229</ele>
        <time>2020-09-22T11:57:27Z</time>
      </trkpt>
      <trkpt lat="46.55246" lon="4.85314">
        <ele>231</ele>
        <time>2020-09-22T11:57:33Z</time>
      </trkpt>
      <trkpt lat="46.5523" lon="4.85302">
        <ele>231</ele>
        <time>2020-09-22T11:57:38Z</time>
      </trkpt>
      <trkpt lat="46.55143" lon="4.85277">
        <ele>229</ele>
        <time>2020-09-22T11:57:58Z</time>
      </trkpt>
      <trkpt lat="46.55086" lon="4.85255">
        <ele>229</ele>
        <time>2020-09-22T11:58:12Z</time>
      </trkpt>
      <trkpt lat="46.54996" lon="4.85208">
        <ele>230</ele>
        <time>2020-09-22T11:58:34Z</time>
      </trkpt>
      <trkpt lat="46.54975" lon="4.85201">
        <ele>230</ele>
        <time>2020-09-22T11:58:39Z</time>
      </trkpt>
      <trkpt lat="46.54956" lon="4.85197">
        <ele>231</ele>
        <time>2020-09-22T11:58:44Z</time>
      </trkpt>
      <trkpt lat="46.54927" lon="4.85198">
        <ele>231</ele>
        <time>2020-09-22T11:58:51Z</time>
      </trkpt>
      <trkpt lat="46.54885" lon="4.8521">
        <ele>231</ele>
        <time>2020-09-22T11:59:01Z</time>
      </trkpt>
      <trkpt lat="46.5486" lon="4.8521">
        <ele>232</ele>
        <time>2020-09-22T11:59:07Z</time>
      </trkpt>
      <trkpt lat="46.54844" lon="4.85207">
        <ele>232</ele>
        <time>2020-09-22T11:59:10Z</time>
      </trkpt>
      <trkpt lat="46.54832" lon="4.85202">
        <ele>233</ele>
        <time>2020-09-22T11:59:13Z</time>
      </trkpt>
      <trkpt lat="46.54812" lon="4.85188">
        <ele>232</ele>
        <time>2020-09-22T11:59:18Z</time>
      </trkpt>
      <trkpt lat="46.54819" lon="4.85176">
        <ele>233</ele>
        <time>2020-09-22T11:59:21Z</time>
      </trkpt>
      <trkpt lat="46.54833" lon="4.85163">
        <ele>235</ele>
        <time>2020-09-22T11:59:25Z</time>
      </trkpt>
      <trkpt lat="46.5487" lon="4.85153">
        <ele>236</ele>
        <time>2020-09-22T11:59:34Z</time>
      </trkpt>
      <trkpt lat="46.54897" lon="4.85139">
        <ele>237</ele>
        <time>2020-09-22T11:59:40Z</time>
      </trkpt>
      <trkpt lat="46.54963" lon="4.85073">
        <ele>244</ele>
        <time>2020-09-22T11:59:59Z</time>
      </trkpt>
      <trkpt lat="46.55037" lon="4.85014">
        <ele>249</ele>
        <time>2020-09-22T12:00:19Z</time>
      </trkpt>
      <trkpt lat="46.54965" lon="4.84982">
        <ele>257</ele>
        <time>2020-09-22T12:00:36Z</time>
      </trkpt>
      <trkpt lat="46.54923" lon="4.84949">
        <ele>265</ele>
        <time>2020-09-22T12:00:47Z</time>
      </trkpt>
      <trkpt lat="46.54865" lon="4.8492">
        <ele>271</ele>
        <time>2020-09-22T12:01:02Z</time>
      </trkpt>
      <trkpt lat="46.54812" lon="4.84874">
        <ele>280</ele>
        <time>2020-09-22T12:01:16Z</time>
      </trkpt>
      <trkpt lat="46.54704" lon="4.84761">
        <ele>288</ele>
        <time>2020-09-22T12:01:47Z</time>
      </trkpt>
      <trkpt lat="46.54651" lon="4.84701">
        <ele>288</ele>
        <time>2020-09-22T12:02:03Z</time>
      </trkpt>
      <trkpt lat="46.54588" lon="4.8464">
        <ele>282</ele>
        <time>2020-09-22T12:02:21Z</time>
      </trkpt>
      <trkpt lat="46.54546" lon="4.84613">
        <ele>274</ele>
        <time>2020-09-22T12:02:31Z</time>
      </trkpt>
      <trkpt lat="46.54515" lon="4.84581">
        <ele>269</ele>
        <time>2020-09-22T12:02:40Z</time>
      </trkpt>
      <trkpt lat="46.54487" lon="4.84546">
        <ele>261</ele>
        <time>2020-09-22T12:02:49Z</time>
      </trkpt>
      <trkpt lat="46.54475" lon="4.84536">
        <ele>258</ele>
        <time>2020-09-22T12:02:52Z</time>
      </trkpt>
      <trkpt lat="46.5449" lon="4.84511">
        <ele>260</ele>
        <time>2020-09-22T12:02:57Z</time>
      </trkpt>
      <trkpt lat="46.54506" lon="4.8449">
        <ele>262</ele>
        <time>2020-09-22T12:03:02Z</time>
      </trkpt>
      <trkpt lat="46.54527" lon="4.84448">
        <ele>264</ele>
        <time>2020-09-22T12:03:11Z</time>
      </trkpt>
      <trkpt lat="46.54553" lon="4.84405">
        <ele>267</ele>
        <time>2020-09-22T12:03:20Z</time>
      </trkpt>
      <trkpt lat="46.54556" lon="4.84347">
        <ele>258</ele>
        <time>2020-09-22T12:03:29Z</time>
      </trkpt>
      <trkpt lat="46.54545" lon="4.84316">
        <ele>251</ele>
        <time>2020-09-22T12:03:35Z</time>
      </trkpt>
      <trkpt lat="46.54548" lon="4.84269">
        <ele>248</ele>
        <time>2020-09-22T12:03:43Z</time>
      </trkpt>
      <trkpt lat="46.54535" lon="4.84252">
        <ele>244</ele>
        <time>2020-09-22T12:03:47Z</time>
      </trkpt>
      <trkpt lat="46.5455" lon="4.84187">
        <ele>246</ele>
        <time>2020-09-22T12:03:58Z</time>
      </trkpt>
      <trkpt lat="46.54557" lon="4.84168">
        <ele>247</ele>
        <time>2020-09-22T12:04:01Z</time>
      </trkpt>
      <trkpt lat="46.54566" lon="4.84153">
        <ele>248</ele>
        <time>2020-09-22T12:04:04Z</time>
      </trkpt>
      <trkpt lat="46.5459" lon="4.84135">
        <ele>252</ele>
        <time>2020-09-22T12:04:11Z</time>
      </trkpt>
      <trkpt lat="46.5462" lon="4.84125">
        <ele>254</ele>
        <time>2020-09-22T12:04:18Z</time>
      </trkpt>
      <trkpt lat="46.54657" lon="4.84119">
        <ele>257</ele>
        <time>2020-09-22T12:04:26Z</time>
      </trkpt>
      <trkpt lat="46.54683" lon="4.841">
        <ele>257</ele>
        <time>2020-09-22T12:04:33Z</time>
      </trkpt>
      <trkpt lat="46.54697" lon="4.84085">
        <ele>257</ele>
        <time>2020-09-22T12:04:37Z</time>
      </trkpt>
      <trkpt lat="46.54709" lon="4.84067">
        <ele>258</ele>
        <time>2020-09-22T12:04:41Z</time>
      </trkpt>
      <trkpt lat="46.54715" lon="4.84042">
        <ele>259</ele>
        <time>2020-09-22T12:04:46Z</time>
      </trkpt>
      <trkpt lat="46.54719" lon="4.84034">
        <ele>259</ele>
        <time>2020-09-22T12:04:47Z</time>
      </trkpt>
      <trkpt lat="46.54726" lon="4.84034">
        <ele>259</ele>
        <time>2020-09-22T12:04:49Z</time>
      </trkpt>
      <trkpt lat="46.54751" lon="4.84054">
        <ele>258</ele>
        <time>2020-09-22T12:04:55Z</time>
      </trkpt>
      <trkpt lat="46.54754" lon="4.84054">
        <ele>259</ele>
        <time>2020-09-22T12:04:56Z</time>
      </trkpt>
      <trkpt lat="46.54775" lon="4.84038">
        <ele>262</ele>
        <time>2020-09-22T12:05:02Z</time>
      </trkpt>
      <trkpt lat="46.54794" lon="4.84027">
        <ele>265</ele>
        <time>2020-09-22T12:05:06Z</time>
      </trkpt>
      <trkpt lat="46.54837" lon="4.84007">
        <ele>271</ele>
        <time>2020-09-22T12:05:17Z</time>
      </trkpt>
      <trkpt lat="46.5485" lon="4.83993">
        <ele>273</ele>
        <time>2020-09-22T12:05:21Z</time>
      </trkpt>
      <trkpt lat="46.54871" lon="4.8398">
        <ele>276</ele>
        <time>2020-09-22T12:05:26Z</time>
      </trkpt>
      <trkpt lat="46.54888" lon="4.83961">
        <ele>278</ele>
        <time>2020-09-22T12:05:31Z</time>
      </trkpt>
      <trkpt lat="46.54897" lon="4.83899">
        <ele>281</ele>
        <time>2020-09-22T12:05:41Z</time>
      </trkpt>
      <trkpt lat="46.54898" lon="4.83877">
        <ele>281</ele>
        <time>2020-09-22T12:05:45Z</time>
      </trkpt>
      <trkpt lat="46.54897" lon="4.83857">
        <ele>281</ele>
        <time>2020-09-22T12:05:48Z</time>
      </trkpt>
      <trkpt lat="46.54872" lon="4.83799">
        <ele>280</ele>
        <time>2020-09-22T12:05:59Z</time>
      </trkpt>
      <trkpt lat="46.54848" lon="4.83728">
        <ele>280</ele>
        <time>2020-09-22T12:06:12Z</time>
      </trkpt>
      <trkpt lat="46.54803" lon="4.83711">
        <ele>277</ele>
        <time>2020-09-22T12:06:23Z</time>
      </trkpt>
      <trkpt lat="46.54737" lon="4.83699">
        <ele>273</ele>
        <time>2020-09-22T12:06:38Z</time>
      </trkpt>
      <trkpt lat="46.54728" lon="4.837">
        <ele>274</ele>
        <time>2020-09-22T12:06:40Z</time>
      </trkpt>
      <trkpt lat="46.54706" lon="4.83718">
        <ele>274</ele>
        <time>2020-09-22T12:06:46Z</time>
      </trkpt>
      <trkpt lat="46.54663" lon="4.83767">
        <ele>274</ele>
        <time>2020-09-22T12:06:59Z</time>
      </trkpt>
      <trkpt lat="46.54638" lon="4.8377">
        <ele>274</ele>
        <time>2020-09-22T12:07:05Z</time>
      </trkpt>
      <trkpt lat="46.5463" lon="4.83773">
        <ele>274</ele>
        <time>2020-09-22T12:07:07Z</time>
      </trkpt>
      <trkpt lat="46.54605" lon="4.83794">
        <ele>273</ele>
        <time>2020-09-22T12:07:13Z</time>
      </trkpt>
      <trkpt lat="46.54594" lon="4.83797">
        <ele>273</ele>
        <time>2020-09-22T12:07:16Z</time>
      </trkpt>
      <trkpt lat="46.54584" lon="4.83792">
        <ele>273</ele>
        <time>2020-09-22T12:07:19Z</time>
      </trkpt>
      <trkpt lat="46.54543" lon="4.83738">
        <ele>274</ele>
        <time>2020-09-22T12:07:31Z</time>
      </trkpt>
      <trkpt lat="46.54559" lon="4.8369">
        <ele>278</ele>
        <time>2020-09-22T12:07:40Z</time>
      </trkpt>
      <trkpt lat="46.54552" lon="4.83672">
        <ele>279</ele>
        <time>2020-09-22T12:07:43Z</time>
      </trkpt>
      <trkpt lat="46.54549" lon="4.83648">
        <ele>280</ele>
        <time>2020-09-22T12:07:47Z</time>
      </trkpt>
      <trkpt lat="46.54543" lon="4.83635">
        <ele>280</ele>
        <time>2020-09-22T12:07:50Z</time>
      </trkpt>
      <trkpt lat="46.54532" lon="4.83622">
        <ele>281</ele>
        <time>2020-09-22T12:07:53Z</time>
      </trkpt>
      <trkpt lat="46.54511" lon="4.83605">
        <ele>281</ele>
        <time>2020-09-22T12:07:59Z</time>
      </trkpt>
      <trkpt lat="46.54502" lon="4.83604">
        <ele>281</ele>
        <time>2020-09-22T12:08:01Z</time>
      </trkpt>
      <trkpt lat="46.54511" lon="4.83605">
        <ele>281</ele>
        <time>2020-09-22T12:08:03Z</time>
      </trkpt>
      <trkpt lat="46.54509" lon="4.83578">
        <ele>282</ele>
        <time>2020-09-22T12:08:07Z</time>
      </trkpt>
      <trkpt lat="46.54514" lon="4.83538">
        <ele>285</ele>
        <time>2020-09-22T12:08:14Z</time>
      </trkpt>
      <trkpt lat="46.5451" lon="4.83508">
        <ele>286</ele>
        <time>2020-09-22T12:08:19Z</time>
      </trkpt>
      <trkpt lat="46.54468" lon="4.83383">
        <ele>294</ele>
        <time>2020-09-22T12:08:41Z</time>
      </trkpt>
      <trkpt lat="46.54458" lon="4.83361">
        <ele>294</ele>
        <time>2020-09-22T12:08:45Z</time>
      </trkpt>
      <trkpt lat="46.54423" lon="4.83307">
        <ele>295</ele>
        <time>2020-09-22T12:08:57Z</time>
      </trkpt>
      <trkpt lat="46.5441" lon="4.83271">
        <ele>296</ele>
        <time>2020-09-22T12:09:04Z</time>
      </trkpt>
      <trkpt lat="46.54411" lon="4.83262">
        <ele>297</ele>
        <time>2020-09-22T12:09:05Z</time>
      </trkpt>
      <trkpt lat="46.54425" lon="4.83225">
        <ele>301</ele>
        <time>2020-09-22T12:09:12Z</time>
      </trkpt>
      <trkpt lat="46.54431" lon="4.83185">
        <ele>304</ele>
        <time>2020-09-22T12:09:19Z</time>
      </trkpt>
      <trkpt lat="46.5443" lon="4.83161">
        <ele>306</ele>
        <time>2020-09-22T12:09:22Z</time>
      </trkpt>
      <trkpt lat="46.5441" lon="4.83086">
        <ele>309</ele>
        <time>2020-09-22T12:09:35Z</time>
      </trkpt>
      <trkpt lat="46.54407" lon="4.83061">
        <ele>312</ele>
        <time>2020-09-22T12:09:39Z</time>
      </trkpt>
      <trkpt lat="46.54409" lon="4.83046">
        <ele>313</ele>
        <time>2020-09-22T12:09:42Z</time>
      </trkpt>
      <trkpt lat="46.54426" lon="4.82997">
        <ele>319</ele>
        <time>2020-09-22T12:09:51Z</time>
      </trkpt>
      <trkpt lat="46.54471" lon="4.82845">
        <ele>335</ele>
        <time>2020-09-22T12:10:17Z</time>
      </trkpt>
      <trkpt lat="46.54477" lon="4.82799">
        <ele>340</ele>
        <time>2020-09-22T12:10:25Z</time>
      </trkpt>
      <trkpt lat="46.54482" lon="4.82779">
        <ele>342</ele>
        <time>2020-09-22T12:10:28Z</time>
      </trkpt>
      <trkpt lat="46.54488" lon="4.82729">
        <ele>345</ele>
        <time>2020-09-22T12:10:36Z</time>
      </trkpt>
      <trkpt lat="46.54488" lon="4.82677">
        <ele>348</ele>
        <time>2020-09-22T12:10:45Z</time>
      </trkpt>
      <trkpt lat="46.54484" lon="4.82602">
        <ele>348</ele>
        <time>2020-09-22T12:10:57Z</time>
      </trkpt>
      <trkpt lat="46.54488" lon="4.82546">
        <ele>344</ele>
        <time>2020-09-22T12:11:06Z</time>
      </trkpt>
      <trkpt lat="46.54491" lon="4.8254">
        <ele>343</ele>
        <time>2020-09-22T12:11:07Z</time>
      </trkpt>
      <trkpt lat="46.54506" lon="4.82534">
        <ele>342</ele>
        <time>2020-09-22T12:11:11Z</time>
      </trkpt>
      <trkpt lat="46.5452" lon="4.82535">
        <ele>340</ele>
        <time>2020-09-22T12:11:14Z</time>
      </trkpt>
      <trkpt lat="46.54569" lon="4.82549">
        <ele>338</ele>
        <time>2020-09-22T12:11:26Z</time>
      </trkpt>
      <trkpt lat="46.54593" lon="4.82553">
        <ele>337</ele>
        <time>2020-09-22T12:11:31Z</time>
      </trkpt>
      <trkpt lat="46.54607" lon="4.82545">
        <ele>334</ele>
        <time>2020-09-22T12:11:35Z</time>
      </trkpt>
      <trkpt lat="46.54614" lon="4.82535">
        <ele>332</ele>
        <time>2020-09-22T12:11:37Z</time>
      </trkpt>
      <trkpt lat="46.54699" lon="4.82264">
        <ele>304</ele>
        <time>2020-09-22T12:12:25Z</time>
      </trkpt>
      <trkpt lat="46.54623" lon="4.82208">
        <ele>309</ele>
        <time>2020-09-22T12:12:45Z</time>
      </trkpt>
      <trkpt lat="46.54603" lon="4.82197">
        <ele>311</ele>
        <time>2020-09-22T12:12:50Z</time>
      </trkpt>
      <trkpt lat="46.54597" lon="4.8219">
        <ele>312</ele>
        <time>2020-09-22T12:12:52Z</time>
      </trkpt>
      <trkpt lat="46.54616" lon="4.82186">
        <ele>310</ele>
        <time>2020-09-22T12:12:56Z</time>
      </trkpt>
      <trkpt lat="46.54626" lon="4.82189">
        <ele>309</ele>
        <time>2020-09-22T12:12:58Z</time>
      </trkpt>
      <trkpt lat="46.54661" lon="4.82207">
        <ele>306</ele>
        <time>2020-09-22T12:13:07Z</time>
      </trkpt>
      <trkpt lat="46.54692" lon="4.82134">
        <ele>301</ele>
        <time>2020-09-22T12:13:21Z</time>
      </trkpt>
      <trkpt lat="46.5471" lon="4.82079">
        <ele>299</ele>
        <time>2020-09-22T12:13:31Z</time>
      </trkpt>
      <trkpt lat="46.54719" lon="4.82061">
        <ele>300</ele>
        <time>2020-09-22T12:13:34Z</time>
      </trkpt>
      <trkpt lat="46.54787" lon="4.82024">
        <ele>297</ele>
        <time>2020-09-22T12:13:51Z</time>
      </trkpt>
      <trkpt lat="46.54815" lon="4.82014">
        <ele>295</ele>
        <time>2020-09-22T12:13:58Z</time>
      </trkpt>
      <trkpt lat="46.5483" lon="4.82012">
        <ele>293</ele>
        <time>2020-09-22T12:14:01Z</time>
      </trkpt>
      <trkpt lat="46.5487" lon="4.81997">
        <ele>290</ele>
        <time>2020-09-22T12:14:11Z</time>
      </trkpt>
      <trkpt lat="46.54908" lon="4.81996">
        <ele>285</ele>
        <time>2020-09-22T12:14:20Z</time>
      </trkpt>
      <trkpt lat="46.5493" lon="4.81989">
        <ele>285</ele>
        <time>2020-09-22T12:14:25Z</time>
      </trkpt>
      <trkpt lat="46.55022" lon="4.81971">
        <ele>287</ele>
        <time>2020-09-22T12:14:47Z</time>
      </trkpt>
      <trkpt lat="46.55036" lon="4.81967">
        <ele>288</ele>
        <time>2020-09-22T12:14:50Z</time>
      </trkpt>
      <trkpt lat="46.55038" lon="4.81958">
        <ele>288</ele>
        <time>2020-09-22T12:14:52Z</time>
      </trkpt>
      <trkpt lat="46.55037" lon="4.81954">
        <ele>288</ele>
        <time>2020-09-22T12:14:52Z</time>
      </trkpt>
      <trkpt lat="46.55013" lon="4.8193">
        <ele>290</ele>
        <time>2020-09-22T12:14:59Z</time>
      </trkpt>
      <trkpt lat="46.54999" lon="4.81909">
        <ele>292</ele>
        <time>2020-09-22T12:15:04Z</time>
      </trkpt>
      <trkpt lat="46.54995" lon="4.81898">
        <ele>293</ele>
        <time>2020-09-22T12:15:06Z</time>
      </trkpt>
      <trkpt lat="46.54993" lon="4.81881">
        <ele>294</ele>
        <time>2020-09-22T12:15:09Z</time>
      </trkpt>
      <trkpt lat="46.55001" lon="4.81838">
        <ele>296</ele>
        <time>2020-09-22T12:15:16Z</time>
      </trkpt>
      <trkpt lat="46.55003" lon="4.81806">
        <ele>297</ele>
        <time>2020-09-22T12:15:21Z</time>
      </trkpt>
      <trkpt lat="46.54994" lon="4.8176">
        <ele>299</ele>
        <time>2020-09-22T12:15:29Z</time>
      </trkpt>
      <trkpt lat="46.54975" lon="4.8171">
        <ele>302</ele>
        <time>2020-09-22T12:15:38Z</time>
      </trkpt>
      <trkpt lat="46.54919" lon="4.81616">
        <ele>312</ele>
        <time>2020-09-22T12:15:58Z</time>
      </trkpt>
      <trkpt lat="46.54901" lon="4.81569">
        <ele>315</ele>
        <time>2020-09-22T12:16:07Z</time>
      </trkpt>
      <trkpt lat="46.54895" lon="4.81543">
        <ele>317</ele>
        <time>2020-09-22T12:16:11Z</time>
      </trkpt>
      <trkpt lat="46.54892" lon="4.81525">
        <ele>318</ele>
        <time>2020-09-22T12:16:14Z</time>
      </trkpt>
      <trkpt lat="46.54897" lon="4.81497">
        <ele>319</ele>
        <time>2020-09-22T12:16:19Z</time>
      </trkpt>
      <trkpt lat="46.54925" lon="4.814">
        <ele>325</ele>
        <time>2020-09-22T12:16:35Z</time>
      </trkpt>
      <trkpt lat="46.54924" lon="4.81387">
        <ele>326</ele>
        <time>2020-09-22T12:16:38Z</time>
      </trkpt>
      <trkpt lat="46.54911" lon="4.81374">
        <ele>328</ele>
        <time>2020-09-22T12:16:41Z</time>
      </trkpt>
      <trkpt lat="46.5489" lon="4.8136">
        <ele>330</ele>
        <time>2020-09-22T12:16:47Z</time>
      </trkpt>
      <trkpt lat="46.54878" lon="4.81346">
        <ele>332</ele>
        <time>2020-09-22T12:16:50Z</time>
      </trkpt>
      <trkpt lat="46.54874" lon="4.81336">
        <ele>333</ele>
        <time>2020-09-22T12:16:52Z</time>
      </trkpt>
      <trkpt lat="46.54867" lon="4.8128">
        <ele>338</ele>
        <time>2020-09-22T12:17:01Z</time>
      </trkpt>
      <trkpt lat="46.54862" lon="4.81262">
        <ele>339</ele>
        <time>2020-09-22T12:17:04Z</time>
      </trkpt>
      <trkpt lat="46.54801" lon="4.81118">
        <ele>349</ele>
        <time>2020-09-22T12:17:32Z</time>
      </trkpt>
      <trkpt lat="46.54788" lon="4.8105">
        <ele>353</ele>
        <time>2020-09-22T12:17:43Z</time>
      </trkpt>
      <trkpt lat="46.54768" lon="4.81006">
        <ele>357</ele>
        <time>2020-09-22T12:17:51Z</time>
      </trkpt>
      <trkpt lat="46.54741" lon="4.80968">
        <ele>359</ele>
        <time>2020-09-22T12:18:00Z</time>
      </trkpt>
      <trkpt lat="46.54733" lon="4.80952">
        <ele>359</ele>
        <time>2020-09-22T12:18:03Z</time>
      </trkpt>
      <trkpt lat="46.54708" lon="4.80884">
        <ele>362</ele>
        <time>2020-09-22T12:18:16Z</time>
      </trkpt>
      <trkpt lat="46.54701" lon="4.80871">
        <ele>362</ele>
        <time>2020-09-22T12:18:18Z</time>
      </trkpt>
      <trkpt lat="46.54671" lon="4.80846">
        <ele>363</ele>
        <time>2020-09-22T12:18:26Z</time>
      </trkpt>
      <trkpt lat="46.54645" lon="4.80816">
        <ele>366</ele>
        <time>2020-09-22T12:18:34Z</time>
      </trkpt>
      <trkpt lat="46.54592" lon="4.80741">
        <ele>371</ele>
        <time>2020-09-22T12:18:51Z</time>
      </trkpt>
      <trkpt lat="46.54557" lon="4.80662">
        <ele>378</ele>
        <time>2020-09-22T12:19:06Z</time>
      </trkpt>
      <trkpt lat="46.54511" lon="4.80584">
        <ele>382</ele>
        <time>2020-09-22T12:19:23Z</time>
      </trkpt>
      <trkpt lat="46.54509" lon="4.80553">
        <ele>382</ele>
        <time>2020-09-22T12:19:28Z</time>
      </trkpt>
      <trkpt lat="46.54507" lon="4.80552">
        <ele>382</ele>
        <time>2020-09-22T12:19:28Z</time>
      </trkpt>
      <trkpt lat="46.54472" lon="4.80405">
        <ele>381</ele>
        <time>2020-09-22T12:19:53Z</time>
      </trkpt>
      <trkpt lat="46.54467" lon="4.80325">
        <ele>380</ele>
        <time>2020-09-22T12:20:06Z</time>
      </trkpt>
      <trkpt lat="46.54462" lon="4.80286">
        <ele>380</ele>
        <time>2020-09-22T12:20:13Z</time>
      </trkpt>
      <trkpt lat="46.54374" lon="4.80213">
        <ele>374</ele>
        <time>2020-09-22T12:20:36Z</time>
      </trkpt>
      <trkpt lat="46.54363" lon="4.80207">
        <ele>373</ele>
        <time>2020-09-22T12:20:39Z</time>
      </trkpt>
      <trkpt lat="46.54365" lon="4.8018">
        <ele>373</ele>
        <time>2020-09-22T12:20:44Z</time>
      </trkpt>
      <trkpt lat="46.54373" lon="4.80139">
        <ele>372</ele>
        <time>2020-09-22T12:20:50Z</time>
      </trkpt>
      <trkpt lat="46.54378" lon="4.80072">
        <ele>369</ele>
        <time>2020-09-22T12:21:01Z</time>
      </trkpt>
      <trkpt lat="46.54381" lon="4.8006">
        <ele>368</ele>
        <time>2020-09-22T12:21:03Z</time>
      </trkpt>
      <trkpt lat="46.54387" lon="4.80046">
        <ele>367</ele>
        <time>2020-09-22T12:21:06Z</time>
      </trkpt>
      <trkpt lat="46.54431" lon="4.79987">
        <ele>363</ele>
        <time>2020-09-22T12:21:20Z</time>
      </trkpt>
      <trkpt lat="46.5443" lon="4.7998">
        <ele>362</ele>
        <time>2020-09-22T12:21:21Z</time>
      </trkpt>
      <trkpt lat="46.54436" lon="4.79957">
        <ele>360</ele>
        <time>2020-09-22T12:21:25Z</time>
      </trkpt>
      <trkpt lat="46.5444" lon="4.79949">
        <ele>359</ele>
        <time>2020-09-22T12:21:27Z</time>
      </trkpt>
      <trkpt lat="46.54465" lon="4.79918">
        <ele>359</ele>
        <time>2020-09-22T12:21:34Z</time>
      </trkpt>
      <trkpt lat="46.54467" lon="4.79911">
        <ele>359</ele>
        <time>2020-09-22T12:21:35Z</time>
      </trkpt>
      <trkpt lat="46.54461" lon="4.79897">
        <ele>356</ele>
        <time>2020-09-22T12:21:38Z</time>
      </trkpt>
      <trkpt lat="46.54476" lon="4.79895">
        <ele>357</ele>
        <time>2020-09-22T12:21:42Z</time>
      </trkpt>
    </trkseg>
  </trk>
</gpx>